Wetterdaten: Sonntag, 07.06.2020
Datum Zeit Temp. Aussen Temp. o. S. Temp +5cm Feuchte Auss Luftdruck Regen Sonnenschein Regendauer Solar Windben Empfang
07.06.2020 00:00 13,2 C 12,2 C 11,7 C 62 % 1003,0 hPa 0,0 l/m 0 min 0 min 0 W/m 3,2 km/h (1 Bft) 97,87 %
07.06.2020 00:02 13,2 C 12,2 C 11,7 C 63 % 1002,9 hPa 0,0 l/m 0 min 0 min 0 W/m 0,0 km/h (0 Bft) 95,35 %
07.06.2020 00:04 13,2 C 12,2 C 11,7 C 63 % 1002,9 hPa 0,0 l/m 0 min 0 min 0 W/m 3,2 km/h (1 Bft) 97,83 %
07.06.2020 00:08 13,2 C 12,2 C 11,7 C 63 % 1002,9 hPa 0,0 l/m 0 min 0 min 0 W/m 9,7 km/h (2 Bft) 95,74 %
07.06.2020 00:10 13,2 C 12,2 C 11,7 C 63 % 1002,9 hPa 0,0 l/m 0 min 0 min 0 W/m 6,4 km/h (2 Bft) 97,87 %
07.06.2020 00:12 13,1 C 12,2 C 11,7 C 63 % 1002,9 hPa 0,0 l/m 0 min 0 min 0 W/m 12,9 km/h (3 Bft) 97,87 %
07.06.2020 00:14 13,1 C 12,2 C 11,7 C 63 % 1002,9 hPa 0,0 l/m 0 min 0 min 0 W/m 16,1 km/h (3 Bft) 95,74 %
07.06.2020 00:16 13,1 C 12,2 C 11,7 C 63 % 1003,0 hPa 0,0 l/m 0 min 0 min 0 W/m 3,2 km/h (1 Bft) 95,65 %
07.06.2020 00:18 13,1 C 12,2 C 11,7 C 63 % 1003,0 hPa 0,0 l/m 0 min 0 min 0 W/m 3,2 km/h (1 Bft) 95,74 %
07.06.2020 00:20 13,1 C 11,7 C 11,7 C 63 % 1003,0 hPa 0,0 l/m 0 min 0 min 0 W/m 6,4 km/h (2 Bft) 95,74 %
07.06.2020 00:22 13,1 C 11,7 C 11,7 C 64 % 1002,9 hPa 0,0 l/m 0 min 0 min 0 W/m 6,4 km/h (2 Bft) 93,62 %
07.06.2020 00:24 13,1 C 11,7 C 11,7 C 64 % 1003,0 hPa 0,0 l/m 0 min 0 min 0 W/m 12,9 km/h (3 Bft) 95,74 %
07.06.2020 00:26 13,0 C 11,7 C 11,7 C 64 % 1002,9 hPa 0,0 l/m 0 min 0 min 0 W/m 3,2 km/h (1 Bft) 93,48 %
07.06.2020 00:28 12,9 C 11,7 C 11,7 C 64 % 1002,9 hPa 0,0 l/m 0 min 0 min 0 W/m 3,2 km/h (1 Bft) 95,74 %
07.06.2020 00:30 12,9 C 11,7 C 11,1 C 64 % 1002,9 hPa 0,0 l/m 0 min 0 min 0 W/m 3,2 km/h (1 Bft) 93,62 %
07.06.2020 00:32 12,9 C 11,7 C 11,1 C 64 % 1002,9 hPa 0,0 l/m 0 min 0 min 0 W/m 3,2 km/h (1 Bft) 95,83 %
07.06.2020 00:34 12,9 C 11,7 C 11,1 C 64 % 1002,9 hPa 0,0 l/m 0 min 0 min 0 W/m 3,2 km/h (1 Bft) 97,87 %
07.06.2020 00:36 12,9 C 11,7 C 11,1 C 64 % 1002,9 hPa 0,0 l/m 0 min 0 min 0 W/m 3,2 km/h (1 Bft) 97,87 %
07.06.2020 00:38 12,8 C 11,7 C 11,1 C 64 % 1002,9 hPa 0,0 l/m 0 min 0 min 0 W/m 6,4 km/h (2 Bft) 97,83 %
07.06.2020 00:40 12,8 C 11,7 C 11,1 C 64 % 1003,0 hPa 0,0 l/m 0 min 0 min 0 W/m 12,9 km/h (3 Bft) 97,87 %
07.06.2020 00:42 12,8 C 11,7 C 11,1 C 65 % 1003,0 hPa 0,0 l/m 0 min 0 min 0 W/m 3,2 km/h (1 Bft) 97,87 %
07.06.2020 00:44 12,8 C 11,7 C 11,1 C 65 % 1003,0 hPa 0,0 l/m 0 min 0 min 0 W/m 6,4 km/h (2 Bft) 97,87 %
07.06.2020 00:46 12,7 C 11,1 C 11,1 C 65 % 1003,0 hPa 0,0 l/m 0 min 0 min 0 W/m 0,0 km/h (0 Bft) 95,74 %
07.06.2020 00:48 12,7 C 11,1 C 11,1 C 65 % 1003,0 hPa 0,0 l/m 0 min 0 min 0 W/m 3,2 km/h (1 Bft) 97,87 %
07.06.2020 00:50 12,7 C 11,1 C 11,1 C 65 % 1003,0 hPa 0,0 l/m 0 min 0 min 0 W/m 3,2 km/h (1 Bft) 97,83 %
07.06.2020 00:52 12,7 C 11,1 C 11,1 C 65 % 1003,0 hPa 0,0 l/m 0 min 0 min 0 W/m 0,0 km/h (0 Bft) 97,87 %
07.06.2020 00:54 12,6 C 11,1 C 11,1 C 65 % 1002,9 hPa 0,0 l/m 0 min 0 min 0 W/m 0,0 km/h (0 Bft) 97,87 %
07.06.2020 00:56 12,6 C 11,1 C 11,1 C 65 % 1003,0 hPa 0,0 l/m 0 min 0 min 0 W/m 0,0 km/h (0 Bft) 97,87 %
07.06.2020 00:58 12,6 C 11,1 C 10,6 C 65 % 1002,9 hPa 0,0 l/m 0 min 0 min 0 W/m 0,0 km/h (0 Bft) 97,87 %
07.06.2020 01:00 12,5 C 11,1 C 10,6 C 66 % 1003,0 hPa 0,0 l/m 0 min 0 min 0 W/m 3,2 km/h (1 Bft) 97,87 %
07.06.2020 01:02 12,5 C 11,1 C 10,6 C 66 % 1003,0 hPa 0,0 l/m 0 min 0 min 0 W/m 3,2 km/h (1 Bft) 97,83 %
07.06.2020 01:04 12,4 C 11,1 C 10,6 C 66 % 1002,9 hPa 0,0 l/m 0 min 0 min 0 W/m 3,2 km/h (1 Bft) 95,74 %
07.06.2020 01:06 12,4 C 11,1 C 10,6 C 66 % 1002,9 hPa 0,0 l/m 0 min 0 min 0 W/m 0,0 km/h (0 Bft) 97,87 %
07.06.2020 01:08 12,4 C 10,6 C 10,6 C 66 % 1002,9 hPa 0,0 l/m 0 min 0 min 0 W/m 3,2 km/h (1 Bft) 100,00 %
07.06.2020 01:10 12,4 C 10,6 C 10,6 C 66 % 1002,9 hPa 0,0 l/m 0 min 0 min 0 W/m 0,0 km/h (0 Bft) 97,87 %
07.06.2020 01:12 12,3 C 10,6 C 10,6 C 66 % 1002,9 hPa 0,0 l/m 0 min 0 min 0 W/m 3,2 km/h (1 Bft) 100,00 %
07.06.2020 01:14 12,3 C 10,6 C 10,6 C 67 % 1002,9 hPa 0,0 l/m 0 min 0 min 0 W/m 3,2 km/h (1 Bft) 97,83 %
07.06.2020 01:16 12,3 C 10,6 C 10,6 C 67 % 1002,9 hPa 0,0 l/m 0 min 0 min 0 W/m 3,2 km/h (1 Bft) 95,74 %
07.06.2020 01:18 12,2 C 10,6 C 10,6 C 67 % 1002,9 hPa 0,0 l/m 0 min 0 min 0 W/m 3,2 km/h (1 Bft) 97,87 %
07.06.2020 01:20 12,2 C 10,6 C 10,6 C 67 % 1002,9 hPa 0,0 l/m 0 min 0 min 0 W/m 3,2 km/h (1 Bft) 100,00 %
07.06.2020 01:22 12,2 C 10,6 C 10,6 C 67 % 1002,9 hPa 0,0 l/m 0 min 0 min 0 W/m 3,2 km/h (1 Bft) 97,87 %
07.06.2020 01:24 12,1 C 10,6 C 10,6 C 68 % 1002,9 hPa 0,0 l/m 0 min 0 min 0 W/m 6,4 km/h (2 Bft) 100,00 %
07.06.2020 01:26 12,1 C 10,6 C 10,6 C 68 % 1002,9 hPa 0,0 l/m 0 min 0 min 0 W/m 12,9 km/h (3 Bft) 97,87 %
07.06.2020 01:28 12,1 C 10,6 C 10,6 C 68 % 1002,9 hPa 0,0 l/m 0 min 0 min 0 W/m 0,0 km/h (0 Bft) 100,00 %
07.06.2020 01:30 12,1 C 10,6 C 10,6 C 68 % 1003,0 hPa 0,0 l/m 0 min 0 min 0 W/m 12,9 km/h (3 Bft) 97,87 %
07.06.2020 01:32 12,0 C 10,6 C 10,6 C 68 % 1003,0 hPa 0,0 l/m 0 min 0 min 0 W/m 0,0 km/h (0 Bft) 97,87 %
07.06.2020 01:34 12,0 C 10,6 C 10,6 C 68 % 1003,0 hPa 0,0 l/m 0 min 0 min 0 W/m 12,9 km/h (3 Bft) 100,00 %
07.06.2020 01:36 11,9 C 10,6 C 10,6 C 69 % 1003,0 hPa 0,0 l/m 0 min 0 min 0 W/m 6,4 km/h (2 Bft) 100,00 %
07.06.2020 01:38 11,9 C 10,6 C 10,6 C 69 % 1003,0 hPa 0,0 l/m 0 min 0 min 0 W/m 6,4 km/h (2 Bft) 97,87 %
07.06.2020 01:40 11,9 C 10,6 C 10,6 C 69 % 1003,0 hPa 0,0 l/m 0 min 0 min 0 W/m 3,2 km/h (1 Bft) 95,74 %
07.06.2020 01:42 11,9 C 10,6 C 10,6 C 69 % 1002,9 hPa 0,0 l/m 0 min 0 min 0 W/m 3,2 km/h (1 Bft) 93,62 %
07.06.2020 01:44 11,8 C 10,6 C 10,6 C 69 % 1003,0 hPa 0,0 l/m 0 min 0 min 0 W/m 6,4 km/h (2 Bft) 97,87 %
07.06.2020 01:46 11,8 C 10,6 C 10,6 C 70 % 1003,0 hPa 0,0 l/m 0 min 0 min 0 W/m 12,9 km/h (3 Bft) 95,74 %
07.06.2020 01:48 11,8 C 10,6 C 10,6 C 70 % 1002,9 hPa 0,0 l/m 0 min 0 min 0 W/m 6,4 km/h (2 Bft) 97,83 %
07.06.2020 01:50 11,8 C 10,6 C 10,6 C 70 % 1002,9 hPa 0,0 l/m 0 min 0 min 0 W/m 3,2 km/h (1 Bft) 97,87 %
07.06.2020 01:52 11,7 C 10,6 C 10,6 C 70 % 1002,9 hPa 0,0 l/m 0 min 0 min 0 W/m 3,2 km/h (1 Bft) 97,87 %
07.06.2020 01:54 11,7 C 10,6 C 10,6 C 70 % 1002,9 hPa 0,0 l/m 0 min 0 min 0 W/m 9,7 km/h (2 Bft) 97,87 %
07.06.2020 01:56 11,7 C 10,6 C 10,6 C 70 % 1002,9 hPa 0,0 l/m 0 min 0 min 0 W/m 12,9 km/h (3 Bft) 97,87 %
07.06.2020 01:58 11,7 C 10,6 C 10,6 C 70 % 1002,9 hPa 0,0 l/m 0 min 0 min 0 W/m 12,9 km/h (3 Bft) 95,74 %
07.06.2020 02:00 11,7 C 10,6 C 10,6 C 70 % 1002,9 hPa 0,0 l/m 0 min 0 min 0 W/m 12,9 km/h (3 Bft) 95,65 %
07.06.2020 02:02 11,7 C 10,6 C 10,6 C 71 % 1002,9 hPa 0,0 l/m 0 min 0 min 0 W/m 3,2 km/h (1 Bft) 97,87 %
07.06.2020 02:04 11,7 C 10,6 C 10,0 C 71 % 1002,9 hPa 0,0 l/m 0 min 0 min 0 W/m 3,2 km/h (1 Bft) 95,74 %
07.06.2020 02:06 11,6 C 10,6 C 10,0 C 71 % 1002,8 hPa 0,0 l/m 0 min 0 min 0 W/m 6,4 km/h (2 Bft) 95,74 %
07.06.2020 02:08 11,6 C 10,6 C 10,0 C 71 % 1002,8 hPa 0,0 l/m 0 min 0 min 0 W/m 12,9 km/h (3 Bft) 97,87 %
07.06.2020 02:10 11,6 C 10,6 C 10,0 C 71 % 1002,8 hPa 0,0 l/m 0 min 0 min 0 W/m 3,2 km/h (1 Bft) 97,87 %
07.06.2020 02:12 11,6 C 10,6 C 10,0 C 71 % 1002,9 hPa 0,0 l/m 0 min 0 min 0 W/m 12,9 km/h (3 Bft) 97,83 %
07.06.2020 02:14 11,6 C 10,6 C 10,6 C 71 % 1002,8 hPa 0,0 l/m 0 min 0 min 0 W/m 12,9 km/h (3 Bft) 95,74 %
07.06.2020 02:16 11,5 C 10,6 C 10,6 C 71 % 1002,8 hPa 0,0 l/m 0 min 0 min 0 W/m 6,4 km/h (2 Bft) 97,87 %
07.06.2020 02:18 11,5 C 10,6 C 10,6 C 71 % 1002,8 hPa 0,0 l/m 0 min 0 min 0 W/m 12,9 km/h (3 Bft) 95,74 %
07.06.2020 02:20 11,5 C 10,6 C 10,6 C 71 % 1002,8 hPa 0,0 l/m 0 min 0 min 0 W/m 9,7 km/h (2 Bft) 95,74 %
07.06.2020 02:22 11,5 C 10,6 C 10,6 C 71 % 1002,7 hPa 0,0 l/m 0 min 0 min 0 W/m 12,9 km/h (3 Bft) 95,74 %
07.06.2020 02:24 11,4 C 10,6 C 10,6 C 71 % 1002,7 hPa 0,0 l/m 0 min 0 min 0 W/m 12,9 km/h (3 Bft) 95,65 %
07.06.2020 02:26 11,4 C 10,6 C 10,6 C 71 % 1002,8 hPa 0,0 l/m 0 min 0 min 0 W/m 16,1 km/h (3 Bft) 95,74 %
07.06.2020 02:28 11,4 C 10,6 C 10,6 C 71 % 1002,8 hPa 0,0 l/m 0 min 0 min 0 W/m 9,7 km/h (2 Bft) 93,62 %
07.06.2020 02:30 11,4 C 10,6 C 10,6 C 71 % 1002,8 hPa 0,0 l/m 0 min 0 min 0 W/m 16,1 km/h (3 Bft) 93,62 %
07.06.2020 02:32 11,4 C 10,6 C 10,6 C 71 % 1002,8 hPa 0,0 l/m 0 min 0 min 0 W/m 3,2 km/h (1 Bft) 95,74 %
07.06.2020 02:34 11,4 C 10,6 C 10,6 C 71 % 1002,8 hPa 0,0 l/m 0 min 0 min 0 W/m 6,4 km/h (2 Bft) 93,48 %
07.06.2020 02:36 11,4 C 10,6 C 10,6 C 71 % 1002,8 hPa 0,0 l/m 0 min 0 min 0 W/m 3,2 km/h (1 Bft) 95,74 %
07.06.2020 02:38 11,4 C 10,6 C 10,6 C 71 % 1002,7 hPa 0,0 l/m 0 min 0 min 0 W/m 3,2 km/h (1 Bft) 95,74 %
07.06.2020 02:40 11,4 C 10,6 C 10,6 C 71 % 1002,8 hPa 0,0 l/m 0 min 0 min 0 W/m 6,4 km/h (2 Bft) 95,74 %
07.06.2020 02:42 11,4 C 10,6 C 10,6 C 71 % 1002,7 hPa 0,0 l/m 0 min 0 min 0 W/m 6,4 km/h (2 Bft) 95,74 %
07.06.2020 02:44 11,4 C 10,6 C 10,6 C 71 % 1002,8 hPa 0,0 l/m 0 min 0 min 0 W/m 12,9 km/h (3 Bft) 95,74 %
07.06.2020 02:46 11,4 C 10,6 C 10,6 C 71 % 1002,8 hPa 0,0 l/m 0 min 0 min 0 W/m 3,2 km/h (1 Bft) 95,65 %
07.06.2020 02:48 11,4 C 10,6 C 10,6 C 71 % 1002,8 hPa 0,0 l/m 0 min 0 min 0 W/m 6,4 km/h (2 Bft) 97,87 %
07.06.2020 02:50 11,4 C 10,6 C 10,6 C 72 % 1002,7 hPa 0,0 l/m 0 min 0 min 0 W/m 6,4 km/h (2 Bft) 95,74 %
07.06.2020 02:52 11,4 C 10,6 C 10,6 C 72 % 1002,8 hPa 0,0 l/m 0 min 0 min 0 W/m 12,9 km/h (3 Bft) 97,87 %
07.06.2020 02:54 11,4 C 10,6 C 10,6 C 72 % 1002,8 hPa 0,0 l/m 0 min 0 min 0 W/m 9,7 km/h (2 Bft) 97,87 %
07.06.2020 02:56 11,4 C 10,6 C 10,6 C 72 % 1002,8 hPa 0,0 l/m 0 min 0 min 0 W/m 16,1 km/h (3 Bft) 97,87 %
07.06.2020 02:58 11,4 C 10,6 C 10,6 C 72 % 1002,8 hPa 0,0 l/m 0 min 0 min 0 W/m 6,4 km/h (2 Bft) 97,83 %
07.06.2020 03:00 11,4 C 10,6 C 10,6 C 72 % 1002,8 hPa 0,0 l/m 0 min 0 min 0 W/m 12,9 km/h (3 Bft) 93,62 %
07.06.2020 03:02 11,4 C 10,6 C 10,6 C 72 % 1002,8 hPa 0,0 l/m 0 min 0 min 0 W/m 12,9 km/h (3 Bft) 97,87 %
07.06.2020 03:04 11,4 C 10,6 C 10,6 C 72 % 1002,8 hPa 0,0 l/m 0 min 0 min 0 W/m 19,3 km/h (3 Bft) 97,87 %
07.06.2020 03:06 11,4 C 10,6 C 10,0 C 72 % 1002,8 hPa 0,0 l/m 0 min 0 min 0 W/m 12,9 km/h (3 Bft) 97,87 %
07.06.2020 03:08 11,4 C 10,6 C 10,0 C 72 % 1002,8 hPa 0,0 l/m 0 min 0 min 0 W/m 12,9 km/h (3 Bft) 100,00 %
07.06.2020 03:10 11,4 C 10,6 C 10,0 C 72 % 1002,8 hPa 0,0 l/m 0 min 0 min 0 W/m 19,3 km/h (3 Bft) 97,83 %
07.06.2020 03:12 11,4 C 10,6 C 10,0 C 72 % 1002,8 hPa 0,0 l/m 0 min 0 min 0 W/m 6,4 km/h (2 Bft) 100,00 %
07.06.2020 03:14 11,3 C 10,6 C 10,0 C 72 % 1002,8 hPa 0,0 l/m 0 min 0 min 0 W/m 12,9 km/h (3 Bft) 97,87 %
07.06.2020 03:16 11,3 C 10,6 C 10,0 C 72 % 1002,8 hPa 0,0 l/m 0 min 0 min 0 W/m 6,4 km/h (2 Bft) 97,87 %
07.06.2020 03:18 11,3 C 10,6 C 10,0 C 72 % 1002,8 hPa 0,0 l/m 0 min 0 min 0 W/m 6,4 km/h (2 Bft) 97,87 %
07.06.2020 03:20 11,3 C 10,6 C 10,0 C 72 % 1002,8 hPa 0,0 l/m 0 min 0 min 0 W/m 12,9 km/h (3 Bft) 97,87 %
07.06.2020 03:22 11,3 C 10,6 C 10,0 C 72 % 1002,7 hPa 0,0 l/m 0 min 0 min 0 W/m 12,9 km/h (3 Bft) 95,65 %
07.06.2020 03:24 11,3 C 10,6 C 10,0 C 72 % 1002,7 hPa 0,0 l/m 0 min 0 min 0 W/m 16,1 km/h (3 Bft) 97,87 %
07.06.2020 03:26 11,3 C 10,6 C 10,0 C 72 % 1002,7 hPa 0,0 l/m 0 min 0 min 0 W/m 12,9 km/h (3 Bft) 97,87 %
07.06.2020 03:28 11,3 C 10,6 C 10,0 C 72 % 1002,7 hPa 0,0 l/m 0 min 0 min 0 W/m 19,3 km/h (3 Bft) 97,87 %
07.06.2020 03:30 11,3 C 10,6 C 10,0 C 72 % 1002,7 hPa 0,0 l/m 0 min 0 min 0 W/m 16,1 km/h (3 Bft) 95,74 %
07.06.2020 03:32 11,3 C 10,6 C 10,0 C 72 % 1002,7 hPa 0,0 l/m 0 min 0 min 0 W/m 6,4 km/h (2 Bft) 97,83 %
07.06.2020 03:34 11,3 C 10,6 C 10,0 C 72 % 1002,7 hPa 0,0 l/m 0 min 0 min 0 W/m 12,9 km/h (3 Bft) 97,87 %
07.06.2020 03:36 11,3 C 10,6 C 10,0 C 72 % 1002,6 hPa 0,0 l/m 0 min 0 min 0 W/m 19,3 km/h (3 Bft) 97,87 %
07.06.2020 03:38 11,2 C 10,6 C 10,0 C 72 % 1002,7 hPa 0,0 l/m 0 min 0 min 0 W/m 12,9 km/h (3 Bft) 97,87 %
07.06.2020 03:40 11,2 C 10,6 C 10,0 C 72 % 1002,7 hPa 0,0 l/m 0 min 0 min 0 W/m 6,4 km/h (2 Bft) 93,88 %
07.06.2020 03:42 11,2 C 10,6 C 10,0 C 72 % 1002,7 hPa 0,0 l/m 0 min 0 min 0 W/m 6,4 km/h (2 Bft) 97,87 %
07.06.2020 03:44 11,2 C 10,6 C 10,0 C 72 % 1002,7 hPa 0,0 l/m 0 min 0 min 0 W/m 6,4 km/h (2 Bft) 97,83 %
07.06.2020 03:46 11,2 C 10,6 C 10,0 C 72 % 1002,8 hPa 0,0 l/m 0 min 0 min 0 W/m 12,9 km/h (3 Bft) 95,74 %
07.06.2020 03:48 11,2 C 10,6 C 10,0 C 72 % 1002,8 hPa 0,0 l/m 0 min 0 min 0 W/m 12,9 km/h (3 Bft) 97,87 %
07.06.2020 03:50 11,2 C 10,6 C 10,0 C 72 % 1002,8 hPa 0,0 l/m 0 min 0 min 0 W/m 12,9 km/h (3 Bft) 97,87 %
07.06.2020 03:52 11,2 C 10,6 C 10,0 C 72 % 1002,8 hPa 0,0 l/m 0 min 0 min 0 W/m 12,9 km/h (3 Bft) 95,74 %
07.06.2020 03:54 11,2 C 10,6 C 10,0 C 72 % 1002,9 hPa 0,0 l/m 0 min 0 min 0 W/m 6,4 km/h (2 Bft) 97,87 %
07.06.2020 03:56 11,2 C 10,6 C 10,0 C 72 % 1002,9 hPa 0,0 l/m 0 min 0 min 0 W/m 16,1 km/h (3 Bft) 95,65 %
07.06.2020 03:58 11,2 C 10,0 C 10,0 C 72 % 1002,9 hPa 0,0 l/m 0 min 0 min 0 W/m 16,1 km/h (3 Bft) 97,87 %
07.06.2020 04:00 11,2 C 10,0 C 10,0 C 72 % 1002,9 hPa 0,0 l/m 0 min 0 min 0 W/m 19,3 km/h (3 Bft) 95,74 %
07.06.2020 04:05 11,2 C 10,0 C 10,0 C 72 % 1003,0 hPa 0,0 l/m 0 min 0 min 0 W/m 6,4 km/h (2 Bft) 100,00 %
07.06.2020 04:06 11,2 C 10,0 C 10,0 C 72 % 1003,0 hPa 0,0 l/m 0 min 0 min 0 W/m 6,4 km/h (2 Bft) 95,65 %
07.06.2020 04:08 11,1 C 10,0 C 10,0 C 72 % 1003,0 hPa 0,0 l/m 0 min 0 min 0 W/m 3,2 km/h (1 Bft) 100,00 %
07.06.2020 04:10 11,1 C 10,0 C 10,0 C 72 % 1003,0 hPa 0,0 l/m 0 min 0 min 0 W/m 6,4 km/h (2 Bft) 97,87 %
07.06.2020 04:12 11,1 C 10,0 C 10,0 C 72 % 1003,0 hPa 0,0 l/m 0 min 0 min 0 W/m 9,7 km/h (2 Bft) 100,00 %
07.06.2020 04:14 11,1 C 10,0 C 10,0 C 72 % 1003,0 hPa 0,0 l/m 0 min 0 min 0 W/m 12,9 km/h (3 Bft) 97,87 %
07.06.2020 04:16 11,1 C 10,0 C 10,0 C 72 % 1003,0 hPa 0,0 l/m 0 min 0 min 0 W/m 16,1 km/h (3 Bft) 100,00 %
07.06.2020 04:18 11,1 C 10,0 C 10,0 C 72 % 1003,0 hPa 0,0 l/m 0 min 0 min 0 W/m 6,4 km/h (2 Bft) 100,00 %
07.06.2020 04:20 11,1 C 10,0 C 10,0 C 72 % 1003,0 hPa 0,0 l/m 0 min 0 min 0 W/m 12,9 km/h (3 Bft) 100,00 %
07.06.2020 04:22 11,1 C 10,6 C 10,0 C 72 % 1003,0 hPa 0,0 l/m 0 min 0 min 0 W/m 19,3 km/h (3 Bft) 97,87 %
07.06.2020 04:24 11,1 C 10,6 C 10,0 C 72 % 1003,1 hPa 0,0 l/m 0 min 0 min 0 W/m 16,1 km/h (3 Bft) 100,00 %
07.06.2020 04:26 11,1 C 10,6 C 10,0 C 72 % 1003,0 hPa 0,0 l/m 0 min 0 min 0 W/m 6,4 km/h (2 Bft) 97,87 %
07.06.2020 04:28 11,1 C 10,6 C 10,0 C 72 % 1003,0 hPa 0,0 l/m 0 min 0 min 0 W/m 6,4 km/h (2 Bft) 100,00 %
07.06.2020 04:30 11,1 C 10,6 C 10,0 C 72 % 1003,1 hPa 0,0 l/m 0 min 0 min 0 W/m 12,9 km/h (3 Bft) 100,00 %
07.06.2020 04:32 11,1 C 10,6 C 10,0 C 72 % 1003,1 hPa 0,0 l/m 0 min 0 min 0 W/m 16,1 km/h (3 Bft) 100,00 %
07.06.2020 04:34 11,1 C 10,6 C 10,0 C 72 % 1003,1 hPa 0,0 l/m 0 min 0 min 0 W/m 19,3 km/h (3 Bft) 100,00 %
07.06.2020 04:36 11,1 C 10,6 C 10,0 C 72 % 1003,0 hPa 0,0 l/m 0 min 0 min 0 W/m 12,9 km/h (3 Bft) 100,00 %
07.06.2020 04:38 11,1 C 10,6 C 10,0 C 72 % 1003,0 hPa 0,0 l/m 0 min 0 min 0 W/m 6,4 km/h (2 Bft) 97,87 %
07.06.2020 04:40 11,1 C 10,6 C 10,0 C 72 % 1003,0 hPa 0,0 l/m 0 min 0 min 0 W/m 12,9 km/h (3 Bft) 100,00 %
07.06.2020 04:42 11,1 C 10,6 C 10,0 C 72 % 1003,1 hPa 0,0 l/m 0 min 0 min 0 W/m 6,4 km/h (2 Bft) 95,65 %
07.06.2020 04:44 11,1 C 10,6 C 10,0 C 72 % 1003,1 hPa 0,0 l/m 0 min 0 min 0 W/m 12,9 km/h (3 Bft) 95,74 %
07.06.2020 04:46 11,1 C 10,6 C 10,0 C 72 % 1003,1 hPa 0,0 l/m 0 min 0 min 0 W/m 22,5 km/h (4 Bft) 100,00 %
07.06.2020 04:48 11,1 C 10,6 C 10,0 C 72 % 1003,1 hPa 0,0 l/m 0 min 0 min 0 W/m 12,9 km/h (3 Bft) 95,74 %
07.06.2020 04:50 11,1 C 10,6 C 10,0 C 72 % 1003,1 hPa 0,0 l/m 0 min 0 min 0 W/m 16,1 km/h (3 Bft) 97,87 %
07.06.2020 04:52 11,1 C 10,6 C 10,0 C 72 % 1003,1 hPa 0,0 l/m 0 min 0 min 0 W/m 16,1 km/h (3 Bft) 97,87 %
07.06.2020 04:54 11,1 C 10,6 C 10,0 C 72 % 1003,1 hPa 0,0 l/m 0 min 0 min 0 W/m 12,9 km/h (3 Bft) 97,83 %
07.06.2020 04:56 11,1 C 10,6 C 10,0 C 72 % 1003,1 hPa 0,0 l/m 0 min 0 min 0 W/m 16,1 km/h (3 Bft) 95,74 %
07.06.2020 04:58 11,1 C 10,6 C 10,0 C 72 % 1003,1 hPa 0,0 l/m 0 min 0 min 0 W/m 12,9 km/h (3 Bft) 97,87 %
07.06.2020 05:00 11,1 C 10,6 C 10,0 C 72 % 1003,1 hPa 0,0 l/m 0 min 0 min 0 W/m 9,7 km/h (2 Bft) 97,87 %
07.06.2020 05:02 11,1 C 10,6 C 10,0 C 72 % 1003,1 hPa 0,0 l/m 0 min 0 min 0 W/m 16,1 km/h (3 Bft) 95,74 %
07.06.2020 05:04 11,1 C 10,6 C 10,0 C 72 % 1003,1 hPa 0,0 l/m 0 min 0 min 0 W/m 12,9 km/h (3 Bft) 97,87 %
07.06.2020 05:06 11,1 C 10,6 C 10,0 C 72 % 1003,1 hPa 0,0 l/m 0 min 0 min 0 W/m 6,4 km/h (2 Bft) 97,83 %
07.06.2020 05:08 11,1 C 10,6 C 10,0 C 72 % 1003,2 hPa 0,0 l/m 0 min 0 min 0 W/m 6,4 km/h (2 Bft) 95,74 %
07.06.2020 05:10 11,1 C 10,6 C 10,0 C 72 % 1003,2 hPa 0,0 l/m 0 min 0 min 0 W/m 3,2 km/h (1 Bft) 97,87 %
07.06.2020 05:12 11,1 C 10,6 C 10,0 C 72 % 1003,3 hPa 0,0 l/m 0 min 0 min 0 W/m 9,7 km/h (2 Bft) 97,87 %
07.06.2020 05:14 11,1 C 10,0 C 10,0 C 72 % 1003,3 hPa 0,0 l/m 0 min 0 min 0 W/m 12,9 km/h (3 Bft) 95,74 %
07.06.2020 05:16 11,1 C 10,6 C 10,0 C 72 % 1003,3 hPa 0,0 l/m 0 min 0 min 0 W/m 19,3 km/h (3 Bft) 53,33 %
07.06.2020 05:18 11,1 C 10,0 C 10,0 C 73 % 1003,3 hPa 0,0 l/m 0 min 0 min 0 W/m 12,9 km/h (3 Bft) 97,87 %
07.06.2020 05:20 11,1 C 10,0 C 10,0 C 73 % 1003,3 hPa 0,0 l/m 0 min 0 min 0 W/m 6,4 km/h (2 Bft) 97,87 %
07.06.2020 05:22 11,1 C 10,0 C 10,0 C 73 % 1003,4 hPa 0,0 l/m 0 min 0 min 0 W/m 16,1 km/h (3 Bft) 97,87 %
07.06.2020 05:24 11,1 C 10,0 C 10,0 C 73 % 1003,4 hPa 0,0 l/m 0 min 0 min 0 W/m 9,7 km/h (2 Bft) 97,87 %
07.06.2020 05:26 11,1 C 10,0 C 10,0 C 73 % 1003,4 hPa 0,0 l/m 0 min 0 min 0 W/m 12,9 km/h (3 Bft) 97,87 %
07.06.2020 05:28 11,1 C 10,6 C 10,0 C 73 % 1003,4 hPa 0,0 l/m 0 min 0 min 0 W/m 19,3 km/h (3 Bft) 97,14 %
07.06.2020 05:30 11,1 C 10,6 C 10,0 C 73 % 1003,4 hPa 0,0 l/m 0 min 0 min 0 W/m 22,5 km/h (4 Bft) 98,28 %
07.06.2020 05:32 11,1 C 10,6 C 10,0 C 73 % 1003,5 hPa 0,0 l/m 0 min 0 min 0 W/m 16,1 km/h (3 Bft) 97,14 %
07.06.2020 05:34 11,1 C 10,0 C 10,0 C 73 % 1003,5 hPa 0,0 l/m 0 min 2 min 0 W/m 16,1 km/h (3 Bft) 97,87 %
07.06.2020 05:36 11,1 C 9,4 C 10,0 C 74 % 1003,5 hPa 0,0 l/m 0 min 2 min 0 W/m 22,5 km/h (4 Bft) 95,74 %
07.06.2020 05:38 11,1 C 9,4 C 10,0 C 74 % 1003,5 hPa 0,0 l/m 0 min 2 min 0 W/m 12,9 km/h (3 Bft) 93,62 %
07.06.2020 05:40 11,1 C 9,4 C 10,0 C 75 % 1003,5 hPa 0,0 l/m 0 min 2 min 0 W/m 19,3 km/h (3 Bft) 95,74 %
07.06.2020 05:42 11,1 C 9,4 C 9,4 C 75 % 1003,5 hPa 0,0 l/m 0 min 0 min 0 W/m 22,5 km/h (4 Bft) 93,62 %
07.06.2020 05:44 11,1 C 10,0 C 9,4 C 75 % 1003,5 hPa 0,0 l/m 0 min 0 min 0 W/m 12,9 km/h (3 Bft) 97,83 %
07.06.2020 05:46 11,1 C 10,0 C 9,4 C 75 % 1003,6 hPa 0,0 l/m 0 min 0 min 0 W/m 6,4 km/h (2 Bft) 97,87 %
07.06.2020 05:48 11,1 C 10,0 C 9,4 C 75 % 1003,6 hPa 0,0 l/m 0 min 0 min 0 W/m 16,1 km/h (3 Bft) 97,87 %
07.06.2020 05:50 11,0 C 10,0 C 10,0 C 76 % 1003,7 hPa 0,0 l/m 0 min 0 min 1 W/m 16,1 km/h (3 Bft) 97,87 %
07.06.2020 05:52 11,0 C 10,0 C 10,0 C 76 % 1003,7 hPa 0,0 l/m 0 min 0 min 5 W/m 29,0 km/h (5 Bft) 97,87 %
07.06.2020 05:54 11,0 C 10,6 C 10,0 C 76 % 1003,7 hPa 0,0 l/m 0 min 0 min 7 W/m 29,0 km/h (5 Bft) 97,83 %
07.06.2020 05:56 11,0 C 10,6 C 10,0 C 76 % 1003,7 hPa 0,0 l/m 0 min 0 min 10 W/m 16,1 km/h (3 Bft) 97,87 %
07.06.2020 05:58 11,0 C 10,6 C 10,0 C 76 % 1003,7 hPa 0,0 l/m 0 min 0 min 12 W/m 12,9 km/h (3 Bft) 97,87 %
07.06.2020 06:00 11,1 C 10,6 C 10,0 C 77 % 1003,7 hPa 0,0 l/m 0 min 0 min 13 W/m 12,9 km/h (3 Bft) 97,87 %
07.06.2020 06:02 11,1 C 10,6 C 10,0 C 77 % 1003,8 hPa 0,0 l/m 0 min 0 min 14 W/m 16,1 km/h (3 Bft) 95,74 %
07.06.2020 06:04 11,1 C 10,6 C 10,0 C 77 % 1003,7 hPa 0,0 l/m 0 min 0 min 16 W/m 12,9 km/h (3 Bft) 97,87 %
07.06.2020 06:08 11,1 C 10,6 C 10,0 C 77 % 1003,7 hPa 0,0 l/m 0 min 0 min 19 W/m 19,3 km/h (3 Bft) 97,85 %
07.06.2020 06:10 11,1 C 10,6 C 10,0 C 77 % 1003,7 hPa 0,0 l/m 0 min 0 min 22 W/m 6,4 km/h (2 Bft) 95,74 %
07.06.2020 06:12 11,1 C 10,6 C 10,0 C 77 % 1003,8 hPa 0,0 l/m 0 min 0 min 23 W/m 19,3 km/h (3 Bft) 95,74 %
07.06.2020 06:14 11,1 C 10,6 C 10,0 C 77 % 1003,8 hPa 0,0 l/m 0 min 0 min 26 W/m 19,3 km/h (3 Bft) 95,74 %
07.06.2020 06:16 11,1 C 10,6 C 10,0 C 77 % 1003,8 hPa 0,0 l/m 0 min 0 min 31 W/m 19,3 km/h (3 Bft) 93,62 %
07.06.2020 06:18 11,1 C 10,6 C 10,0 C 77 % 1003,8 hPa 0,0 l/m 0 min 0 min 31 W/m 9,7 km/h (2 Bft) 93,48 %
07.06.2020 06:20 11,1 C 10,6 C 10,0 C 77 % 1003,9 hPa 0,0 l/m 0 min 0 min 30 W/m 19,3 km/h (3 Bft) 89,36 %
07.06.2020 06:22 11,1 C 10,6 C 10,0 C 77 % 1003,9 hPa 0,0 l/m 0 min 0 min 30 W/m 16,1 km/h (3 Bft) 95,74 %
07.06.2020 06:24 11,1 C 10,6 C 10,0 C 77 % 1003,9 hPa 0,0 l/m 0 min 0 min 30 W/m 6,4 km/h (2 Bft) 95,74 %
07.06.2020 06:26 11,2 C 10,6 C 10,0 C 77 % 1003,9 hPa 0,0 l/m 0 min 0 min 27 W/m 16,1 km/h (3 Bft) 93,62 %
07.06.2020 06:28 11,2 C 10,6 C 10,0 C 77 % 1004,0 hPa 0,0 l/m 0 min 0 min 26 W/m 6,4 km/h (2 Bft) 95,74 %
07.06.2020 06:30 11,2 C 10,6 C 10,0 C 77 % 1003,9 hPa 0,0 l/m 0 min 0 min 25 W/m 25,7 km/h (4 Bft) 95,65 %
07.06.2020 06:32 11,2 C 10,6 C 10,0 C 78 % 1004,0 hPa 0,0 l/m 0 min 0 min 27 W/m 29,0 km/h (5 Bft) 95,74 %
07.06.2020 06:34 11,2 C 10,6 C 10,0 C 78 % 1004,0 hPa 0,0 l/m 0 min 0 min 28 W/m 22,5 km/h (4 Bft) 93,62 %
07.06.2020 06:36 11,2 C 10,6 C 10,0 C 78 % 1003,9 hPa 0,0 l/m 0 min 0 min 30 W/m 9,7 km/h (2 Bft) 95,74 %
07.06.2020 06:38 11,2 C 10,6 C 10,0 C 78 % 1003,9 hPa 0,0 l/m 0 min 0 min 28 W/m 16,1 km/h (3 Bft) 93,62 %
07.06.2020 06:40 11,2 C 10,6 C 10,0 C 78 % 1004,0 hPa 0,0 l/m 0 min 0 min 30 W/m 32,2 km/h (5 Bft) 97,87 %
07.06.2020 06:42 11,2 C 10,6 C 10,0 C 78 % 1004,0 hPa 0,0 l/m 0 min 0 min 30 W/m 12,9 km/h (3 Bft) 97,83 %
07.06.2020 06:44 11,2 C 10,6 C 10,0 C 78 % 1004,0 hPa 0,0 l/m 0 min 0 min 30 W/m 16,1 km/h (3 Bft) 93,62 %
07.06.2020 06:46 11,2 C 10,6 C 10,0 C 78 % 1004,0 hPa 0,0 l/m 0 min 0 min 29 W/m 16,1 km/h (3 Bft) 97,87 %
07.06.2020 06:48 11,2 C 10,6 C 10,0 C 78 % 1004,0 hPa 0,0 l/m 0 min 0 min 30 W/m 12,9 km/h (3 Bft) 97,87 %
07.06.2020 06:50 11,2 C 10,6 C 10,0 C 78 % 1004,0 hPa 0,0 l/m 0 min 0 min 32 W/m 6,4 km/h (2 Bft) 95,74 %
07.06.2020 06:52 11,2 C 10,6 C 10,0 C 78 % 1004,0 hPa 0,0 l/m 0 min 0 min 33 W/m 22,5 km/h (4 Bft) 97,87 %
07.06.2020 06:54 11,2 C 10,6 C 10,0 C 78 % 1004,1 hPa 0,0 l/m 0 min 0 min 33 W/m 12,9 km/h (3 Bft) 95,65 %
07.06.2020 06:56 11,2 C 10,6 C 10,0 C 79 % 1004,1 hPa 0,0 l/m 0 min 0 min 36 W/m 6,4 km/h (2 Bft) 95,74 %
07.06.2020 06:58 11,2 C 10,6 C 10,0 C 79 % 1004,2 hPa 0,0 l/m 0 min 0 min 39 W/m 19,3 km/h (3 Bft) 100,00 %
07.06.2020 07:00 11,2 C 10,6 C 10,0 C 79 % 1004,2 hPa 0,0 l/m 0 min 0 min 42 W/m 19,3 km/h (3 Bft) 100,00 %
07.06.2020 07:02 11,2 C 10,6 C 10,0 C 79 % 1004,2 hPa 0,0 l/m 0 min 0 min 46 W/m 16,1 km/h (3 Bft) 100,00 %
07.06.2020 07:04 11,2 C 10,6 C 10,0 C 79 % 1004,2 hPa 0,0 l/m 0 min 0 min 52 W/m 9,7 km/h (2 Bft) 95,65 %
07.06.2020 07:06 11,2 C 10,6 C 10,0 C 79 % 1004,3 hPa 0,0 l/m 0 min 0 min 52 W/m 22,5 km/h (4 Bft) 100,00 %
07.06.2020 07:08 11,2 C 10,6 C 10,6 C 79 % 1004,4 hPa 0,0 l/m 0 min 0 min 47 W/m 16,1 km/h (3 Bft) 100,00 %
07.06.2020 07:10 11,3 C 10,6 C 10,6 C 79 % 1004,4 hPa 0,0 l/m 0 min 0 min 39 W/m 19,3 km/h (3 Bft) 97,87 %
07.06.2020 07:12 11,3 C 10,6 C 10,6 C 79 % 1004,4 hPa 0,0 l/m 0 min 0 min 45 W/m 12,9 km/h (3 Bft) 97,87 %
07.06.2020 07:14 11,3 C 10,6 C 10,6 C 80 % 1004,4 hPa 0,0 l/m 0 min 0 min 38 W/m 22,5 km/h (4 Bft) 100,00 %
07.06.2020 07:16 11,3 C 10,6 C 10,0 C 80 % 1004,4 hPa 0,0 l/m 0 min 2 min 27 W/m 16,1 km/h (3 Bft) 100,00 %
07.06.2020 07:18 11,3 C 10,6 C 10,0 C 80 % 1004,5 hPa 0,0 l/m 0 min 0 min 27 W/m 16,1 km/h (3 Bft) 100,00 %
07.06.2020 07:20 11,3 C 10,6 C 10,0 C 80 % 1004,4 hPa 0,0 l/m 0 min 0 min 34 W/m 19,3 km/h (3 Bft) 97,87 %
07.06.2020 07:22 11,3 C 10,6 C 10,0 C 80 % 1004,5 hPa 0,0 l/m 0 min 0 min 58 W/m 19,3 km/h (3 Bft) 100,00 %
07.06.2020 07:24 11,3 C 11,1 C 10,6 C 81 % 1004,6 hPa 0,0 l/m 0 min 0 min 71 W/m 12,9 km/h (3 Bft) 97,87 %
07.06.2020 07:26 11,3 C 11,1 C 10,6 C 81 % 1004,5 hPa 0,0 l/m 0 min 0 min 67 W/m 12,9 km/h (3 Bft) 97,87 %
07.06.2020 07:28 11,3 C 11,1 C 10,6 C 81 % 1004,6 hPa 0,0 l/m 0 min 0 min 58 W/m 12,9 km/h (3 Bft) 97,83 %
07.06.2020 07:30 11,4 C 11,1 C 10,6 C 81 % 1004,6 hPa 0,0 l/m 0 min 0 min 54 W/m 16,1 km/h (3 Bft) 97,87 %
07.06.2020 07:32 11,4 C 11,1 C 10,6 C 81 % 1004,6 hPa 0,0 l/m 0 min 0 min 48 W/m 9,7 km/h (2 Bft) 100,00 %
07.06.2020 07:34 11,4 C 11,1 C 10,6 C 81 % 1004,6 hPa 0,0 l/m 0 min 0 min 48 W/m 12,9 km/h (3 Bft) 100,00 %
07.06.2020 07:36 11,4 C 11,1 C 10,6 C 81 % 1004,6 hPa 0,0 l/m 0 min 0 min 59 W/m 12,9 km/h (3 Bft) 97,87 %
07.06.2020 07:38 11,4 C 11,1 C 10,6 C 81 % 1004,6 hPa 0,0 l/m 0 min 0 min 81 W/m 12,9 km/h (3 Bft) 93,62 %
07.06.2020 07:40 11,4 C 11,1 C 10,6 C 81 % 1004,7 hPa 0,0 l/m 0 min 0 min 91 W/m 19,3 km/h (3 Bft) 97,83 %
07.06.2020 07:42 11,4 C 11,1 C 10,6 C 81 % 1004,7 hPa 0,0 l/m 0 min 0 min 93 W/m 12,9 km/h (3 Bft) 95,74 %
07.06.2020 07:44 11,4 C 11,7 C 10,6 C 81 % 1004,7 hPa 0,0 l/m 0 min 0 min 86 W/m 6,4 km/h (2 Bft) 97,87 %
07.06.2020 07:46 11,4 C 11,7 C 10,6 C 81 % 1004,7 hPa 0,0 l/m 0 min 0 min 89 W/m 9,7 km/h (2 Bft) 95,74 %
07.06.2020 07:48 11,4 C 11,7 C 10,6 C 81 % 1004,7 hPa 0,0 l/m 0 min 0 min 96 W/m 9,7 km/h (2 Bft) 97,87 %
07.06.2020 07:50 11,5 C 11,7 C 10,6 C 82 % 1004,7 hPa 0,0 l/m 0 min 0 min 127 W/m 6,4 km/h (2 Bft) 97,83 %
07.06.2020 07:52 11,5 C 12,2 C 11,1 C 82 % 1004,8 hPa 0,0 l/m 0 min 0 min 131 W/m 6,4 km/h (2 Bft) 97,87 %
07.06.2020 07:54 11,6 C 12,2 C 11,1 C 82 % 1004,8 hPa 0,0 l/m 0 min 0 min 110 W/m 16,1 km/h (3 Bft) 97,87 %
07.06.2020 07:56 11,6 C 12,2 C 11,1 C 82 % 1004,8 hPa 0,0 l/m 0 min 0 min 139 W/m 16,1 km/h (3 Bft) 97,87 %
07.06.2020 07:58 11,6 C 12,2 C 11,1 C 82 % 1004,8 hPa 0,0 l/m 0 min 0 min 137 W/m 16,1 km/h (3 Bft) 97,87 %
07.06.2020 08:00 11,7 C 12,2 C 11,1 C 82 % 1004,8 hPa 0,0 l/m 0 min 0 min 122 W/m 19,3 km/h (3 Bft) 97,87 %
07.06.2020 08:02 11,7 C 12,2 C 11,1 C 82 % 1004,9 hPa 0,0 l/m 0 min 0 min 106 W/m 19,3 km/h (3 Bft) 97,83 %
07.06.2020 08:04 11,7 C 12,2 C 11,1 C 82 % 1004,8 hPa 0,0 l/m 0 min 0 min 105 W/m 16,1 km/h (3 Bft) 97,87 %
07.06.2020 08:06 11,8 C 12,2 C 11,1 C 82 % 1004,9 hPa 0,0 l/m 0 min 0 min 96 W/m 25,7 km/h (4 Bft) 95,74 %
07.06.2020 08:08 11,8 C 12,2 C 11,1 C 82 % 1004,9 hPa 0,0 l/m 0 min 0 min 68 W/m 16,1 km/h (3 Bft) 95,74 %
07.06.2020 08:10 11,8 C 13,9 C 11,1 C 82 % 1004,9 hPa 0,0 l/m 0 min 0 min 66 W/m 22,5 km/h (4 Bft) 95,74 %
07.06.2020 08:12 11,9 C 13,3 C 11,1 C 82 % 1004,8 hPa 0,0 l/m 0 min 0 min 63 W/m 25,7 km/h (4 Bft) 97,87 %
07.06.2020 08:14 11,9 C 12,8 C 11,1 C 82 % 1004,8 hPa 0,0 l/m 0 min 0 min 53 W/m 19,3 km/h (3 Bft) 95,65 %
07.06.2020 08:16 12,0 C 13,9 C 11,1 C 81 % 1004,9 hPa 0,0 l/m 0 min 0 min 60 W/m 22,5 km/h (4 Bft) 97,87 %
07.06.2020 08:18 12,1 C 14,4 C 11,1 C 82 % 1004,9 hPa 0,0 l/m 0 min 0 min 56 W/m 25,7 km/h (4 Bft) 95,74 %
07.06.2020 08:20 12,2 C 15,0 C 11,1 C 81 % 1005,0 hPa 0,0 l/m 0 min 0 min 60 W/m 12,9 km/h (3 Bft) 97,87 %
07.06.2020 08:22 12,3 C 15,6 C 11,7 C 81 % 1005,0 hPa 0,0 l/m 0 min 0 min 59 W/m 22,5 km/h (4 Bft) 97,87 %
07.06.2020 08:24 12,4 C 15,6 C 11,7 C 81 % 1005,0 hPa 0,0 l/m 0 min 0 min 64 W/m 16,1 km/h (3 Bft) 97,87 %
07.06.2020 08:26 12,5 C 16,7 C 12,2 C 81 % 1005,1 hPa 0,0 l/m 0 min 0 min 78 W/m 9,7 km/h (2 Bft) 97,83 %
07.06.2020 08:28 12,6 C 16,7 C 13,3 C 81 % 1005,1 hPa 0,0 l/m 0 min 0 min 96 W/m 16,1 km/h (3 Bft) 97,87 %
07.06.2020 08:30 12,8 C 16,7 C 13,9 C 81 % 1005,1 hPa 0,0 l/m 0 min 0 min 124 W/m 12,9 km/h (3 Bft) 97,87 %
07.06.2020 08:32 12,9 C 16,1 C 14,4 C 80 % 1005,1 hPa 0,0 l/m 0 min 0 min 195 W/m 16,1 km/h (3 Bft) 97,87 %
07.06.2020 08:34 13,0 C 15,6 C 14,4 C 80 % 1005,2 hPa 0,0 l/m 0 min 0 min 216 W/m 25,7 km/h (4 Bft) 97,87 %
07.06.2020 08:36 13,1 C 16,1 C 15,0 C 79 % 1005,2 hPa 0,0 l/m 0 min 0 min 185 W/m 12,9 km/h (3 Bft) 97,87 %
07.06.2020 08:38 13,2 C 14,4 C 13,9 C 79 % 1005,3 hPa 0,0 l/m 0 min 0 min 178 W/m 19,3 km/h (3 Bft) 95,65 %
07.06.2020 08:40 13,3 C 14,4 C 13,9 C 78 % 1005,2 hPa 0,0 l/m 0 min 0 min 192 W/m 22,5 km/h (4 Bft) 97,87 %
07.06.2020 08:42 13,3 C 13,3 C 12,8 C 77 % 1005,4 hPa 0,0 l/m 0 min 0 min 151 W/m 35,4 km/h (5 Bft) 100,00 %
07.06.2020 08:44 13,3 C 13,3 C 12,8 C 77 % 1005,3 hPa 0,0 l/m 0 min 0 min 156 W/m 16,1 km/h (3 Bft) 100,00 %
07.06.2020 08:46 13,3 C 13,3 C 12,8 C 78 % 1005,3 hPa 0,0 l/m 0 min 0 min 176 W/m 6,4 km/h (2 Bft) 100,00 %
07.06.2020 08:48 13,3 C 13,9 C 12,8 C 78 % 1005,4 hPa 0,0 l/m 0 min 0 min 194 W/m 16,1 km/h (3 Bft) 97,87 %
07.06.2020 08:50 13,3 C 13,9 C 12,8 C 78 % 1005,3 hPa 0,0 l/m 0 min 0 min 204 W/m 6,4 km/h (2 Bft) 97,83 %
07.06.2020 08:52 13,3 C 13,9 C 12,8 C 78 % 1005,4 hPa 0,0 l/m 0 min 0 min 146 W/m 22,5 km/h (4 Bft) 97,87 %
07.06.2020 08:54 13,3 C 13,3 C 12,2 C 78 % 1005,4 hPa 0,0 l/m 0 min 0 min 140 W/m 22,5 km/h (4 Bft) 97,87 %
07.06.2020 08:56 13,3 C 13,9 C 12,8 C 78 % 1005,4 hPa 0,0 l/m 0 min 0 min 197 W/m 16,1 km/h (3 Bft) 95,74 %
07.06.2020 08:58 13,3 C 14,4 C 12,8 C 79 % 1005,4 hPa 0,0 l/m 0 min 0 min 193 W/m 6,4 km/h (2 Bft) 95,74 %
07.06.2020 09:00 13,4 C 14,4 C 13,9 C 79 % 1005,5 hPa 0,0 l/m 0 min 0 min 178 W/m 12,9 km/h (3 Bft) 97,87 %
07.06.2020 09:02 13,4 C 13,9 C 13,3 C 78 % 1005,5 hPa 0,0 l/m 0 min 0 min 146 W/m 22,5 km/h (4 Bft) 97,83 %
07.06.2020 09:04 13,4 C 13,9 C 12,8 C 78 % 1005,6 hPa 0,0 l/m 0 min 0 min 164 W/m 16,1 km/h (3 Bft) 97,87 %
07.06.2020 09:06 13,4 C 13,9 C 12,8 C 78 % 1005,6 hPa 0,0 l/m 0 min 0 min 191 W/m 16,1 km/h (3 Bft) 95,74 %
07.06.2020 09:08 13,4 C 14,4 C 13,3 C 78 % 1005,6 hPa 0,0 l/m 0 min 0 min 177 W/m 6,4 km/h (2 Bft) 95,74 %
07.06.2020 09:10 13,4 C 13,9 C 12,8 C 79 % 1005,6 hPa 0,0 l/m 0 min 0 min 173 W/m 9,7 km/h (2 Bft) 95,74 %
07.06.2020 09:12 13,5 C 15,0 C 13,3 C 78 % 1005,7 hPa 0,0 l/m 0 min 0 min 188 W/m 3,2 km/h (1 Bft) 95,74 %
07.06.2020 09:14 13,6 C 15,0 C 13,9 C 79 % 1005,7 hPa 0,0 l/m 0 min 0 min 178 W/m 19,3 km/h (3 Bft) 93,48 %
07.06.2020 09:16 13,6 C 16,7 C 15,0 C 78 % 1005,7 hPa 0,0 l/m 2 min 0 min 290 W/m 19,3 km/h (3 Bft) 95,74 %
07.06.2020 09:18 13,7 C 18,3 C 16,7 C 78 % 1005,8 hPa 0,0 l/m 2 min 0 min 621 W/m 9,7 km/h (2 Bft) 97,87 %
07.06.2020 09:20 13,9 C 18,9 C 17,2 C 79 % 1005,8 hPa 0,0 l/m 2 min 0 min 691 W/m 9,7 km/h (2 Bft) 95,74 %
07.06.2020 09:22 14,0 C 16,7 C 16,1 C 78 % 1005,8 hPa 0,0 l/m 2 min 0 min 543 W/m 9,7 km/h (2 Bft) 95,74 %
07.06.2020 09:24 14,2 C 16,7 C 16,1 C 78 % 1005,8 hPa 0,0 l/m 0 min 0 min 260 W/m 19,3 km/h (3 Bft) 95,74 %
07.06.2020 09:26 14,3 C 16,7 C 16,1 C 77 % 1005,8 hPa 0,0 l/m 0 min 0 min 260 W/m 16,1 km/h (3 Bft) 93,48 %
07.06.2020 09:28 14,3 C 15,6 C 15,0 C 76 % 1005,9 hPa 0,0 l/m 0 min 0 min 234 W/m 19,3 km/h (3 Bft) 93,62 %
07.06.2020 09:30 14,3 C 17,2 C 16,1 C 76 % 1005,9 hPa 0,0 l/m 2 min 0 min 403 W/m 9,7 km/h (2 Bft) 95,74 %
07.06.2020 09:32 14,4 C 18,9 C 17,8 C 76 % 1005,9 hPa 0,0 l/m 2 min 0 min 705 W/m 16,1 km/h (3 Bft) 93,62 %
07.06.2020 09:34 14,5 C 16,7 C 16,7 C 75 % 1005,9 hPa 0,0 l/m 2 min 0 min 640 W/m 12,9 km/h (3 Bft) 97,87 %
07.06.2020 09:36 14,6 C 15,6 C 15,6 C 75 % 1005,9 hPa 0,0 l/m 0 min 0 min 165 W/m 9,7 km/h (2 Bft) 93,48 %
07.06.2020 09:38 14,6 C 14,4 C 15,0 C 75 % 1005,9 hPa 0,0 l/m 0 min 0 min 172 W/m 16,1 km/h (3 Bft) 97,87 %
07.06.2020 09:40 14,5 C 14,4 C 14,4 C 75 % 1005,9 hPa 0,0 l/m 0 min 0 min 199 W/m 16,1 km/h (3 Bft) 97,87 %
07.06.2020 09:42 14,4 C 15,6 C 14,4 C 75 % 1005,8 hPa 0,0 l/m 0 min 0 min 214 W/m 12,9 km/h (3 Bft) 97,87 %
07.06.2020 09:44 14,5 C 15,6 C 15,0 C 75 % 1005,9 hPa 0,0 l/m 0 min 0 min 193 W/m 9,7 km/h (2 Bft) 97,87 %
07.06.2020 09:46 14,5 C 17,2 C 16,7 C 75 % 1005,9 hPa 0,0 l/m 0 min 0 min 111 W/m 19,3 km/h (3 Bft) 93,62 %
07.06.2020 09:48 14,6 C 18,9 C 17,8 C 76 % 1006,0 hPa 0,0 l/m 2 min 0 min 693 W/m 9,7 km/h (2 Bft) 97,83 %
07.06.2020 09:50 14,7 C 18,9 C 18,3 C 76 % 1005,9 hPa 0,0 l/m 2 min 0 min 427 W/m 12,9 km/h (3 Bft) 97,87 %
07.06.2020 09:52 14,8 C 18,9 C 18,3 C 74 % 1006,0 hPa 0,0 l/m 2 min 0 min 591 W/m 22,5 km/h (4 Bft) 97,87 %
07.06.2020 09:54 15,0 C 18,3 C 17,8 C 74 % 1006,0 hPa 0,0 l/m 2 min 0 min 636 W/m 12,9 km/h (3 Bft) 97,87 %
07.06.2020 09:56 15,1 C 17,2 C 17,2 C 75 % 1006,0 hPa 0,0 l/m 2 min 0 min 338 W/m 9,7 km/h (2 Bft) 95,74 %
07.06.2020 09:58 15,2 C 17,8 C 17,2 C 74 % 1006,0 hPa 0,0 l/m 2 min 0 min 338 W/m 12,9 km/h (3 Bft) 97,87 %
07.06.2020 10:00 15,2 C 17,8 C 17,2 C 74 % 1006,0 hPa 0,0 l/m 0 min 0 min 295 W/m 16,1 km/h (3 Bft) 100,00 %
07.06.2020 10:02 15,3 C 18,3 C 17,8 C 74 % 1006,0 hPa 0,0 l/m 2 min 0 min 467 W/m 16,1 km/h (3 Bft) 100,00 %
07.06.2020 10:04 15,4 C 18,9 C 17,8 C 72 % 1006,1 hPa 0,0 l/m 2 min 0 min 563 W/m 22,5 km/h (4 Bft) 100,00 %
07.06.2020 10:06 15,4 C 18,3 C 17,8 C 72 % 1006,1 hPa 0,0 l/m 2 min 0 min 759 W/m 12,9 km/h (3 Bft) 97,87 %
07.06.2020 10:08 15,5 C 17,2 C 17,2 C 72 % 1006,1 hPa 0,0 l/m 2 min 0 min 614 W/m 12,9 km/h (3 Bft) 95,74 %
07.06.2020 10:10 15,5 C 16,1 C 16,1 C 72 % 1006,2 hPa 0,0 l/m 0 min 0 min 164 W/m 12,9 km/h (3 Bft) 100,00 %
07.06.2020 10:12 15,5 C 18,3 C 17,8 C 72 % 1006,2 hPa 0,0 l/m 2 min 0 min 527 W/m 12,9 km/h (3 Bft) 95,65 %
07.06.2020 10:14 15,6 C 20,0 C 19,4 C 72 % 1006,2 hPa 0,0 l/m 2 min 0 min 845 W/m 19,3 km/h (3 Bft) 100,00 %
07.06.2020 10:16 15,7 C 19,4 C 18,9 C 72 % 1006,3 hPa 0,0 l/m 2 min 0 min 657 W/m 16,1 km/h (3 Bft) 100,00 %
07.06.2020 10:18 15,7 C 18,9 C 18,9 C 72 % 1006,2 hPa 0,0 l/m 0 min 0 min 315 W/m 12,9 km/h (3 Bft) 97,87 %
07.06.2020 10:20 15,8 C 20,0 C 19,4 C 71 % 1006,2 hPa 0,0 l/m 2 min 0 min 824 W/m 9,7 km/h (2 Bft) 100,00 %
07.06.2020 10:22 15,9 C 20,6 C 20,6 C 71 % 1006,3 hPa 0,0 l/m 2 min 0 min 795 W/m 16,1 km/h (3 Bft) 100,00 %
07.06.2020 10:24 16,0 C 20,6 C 20,6 C 71 % 1006,2 hPa 0,0 l/m 2 min 0 min 759 W/m 12,9 km/h (3 Bft) 100,00 %
07.06.2020 10:26 16,2 C 21,1 C 21,7 C 70 % 1006,2 hPa 0,0 l/m 2 min 0 min 784 W/m 19,3 km/h (3 Bft) 97,87 %
07.06.2020 10:28 16,3 C 20,6 C 21,7 C 69 % 1006,2 hPa 0,0 l/m 2 min 0 min 909 W/m 25,7 km/h (4 Bft) 100,00 %
07.06.2020 10:30 16,4 C 17,8 C 18,9 C 68 % 1006,3 hPa 0,0 l/m 2 min 0 min 792 W/m 29,0 km/h (5 Bft) 100,00 %
07.06.2020 10:32 16,3 C 17,8 C 18,3 C 68 % 1006,3 hPa 0,0 l/m 0 min 0 min 209 W/m 16,1 km/h (3 Bft) 100,00 %
07.06.2020 10:34 16,4 C 19,4 C 19,4 C 68 % 1006,3 hPa 0,0 l/m 0 min 0 min 342 W/m 6,4 km/h (2 Bft) 100,00 %
07.06.2020 10:36 16,4 C 21,1 C 21,1 C 69 % 1006,3 hPa 0,0 l/m 2 min 0 min 939 W/m 6,4 km/h (2 Bft) 100,00 %
07.06.2020 10:38 16,6 C 21,1 C 21,1 C 69 % 1006,4 hPa 0,0 l/m 2 min 0 min 725 W/m 16,1 km/h (3 Bft) 100,00 %
07.06.2020 10:40 16,6 C 18,3 C 21,1 C 67 % 1006,4 hPa 0,0 l/m 0 min 0 min 311 W/m 19,3 km/h (3 Bft) 100,00 %
07.06.2020 10:42 16,6 C 17,8 C 21,1 C 68 % 1006,4 hPa 0,0 l/m 0 min 0 min 334 W/m 6,4 km/h (2 Bft) 97,87 %
07.06.2020 10:44 16,5 C 16,7 C 17,2 C 68 % 1006,3 hPa 0,0 l/m 0 min 0 min 220 W/m 6,4 km/h (2 Bft) 97,87 %
07.06.2020 10:46 16,5 C 16,1 C 16,7 C 67 % 1006,4 hPa 0,0 l/m 0 min 0 min 136 W/m 6,4 km/h (2 Bft) 100,00 %
07.06.2020 10:48 16,4 C 15,6 C 15,6 C 67 % 1006,4 hPa 0,0 l/m 0 min 0 min 122 W/m 9,7 km/h (2 Bft) 100,00 %
07.06.2020 10:50 16,2 C 15,0 C 15,0 C 67 % 1006,5 hPa 0,0 l/m 0 min 0 min 120 W/m 9,7 km/h (2 Bft) 100,00 %
07.06.2020 10:52 16,1 C 14,4 C 15,0 C 68 % 1006,5 hPa 0,0 l/m 0 min 0 min 121 W/m 16,1 km/h (3 Bft) 100,00 %
07.06.2020 10:54 15,9 C 14,4 C 14,4 C 68 % 1006,6 hPa 0,0 l/m 0 min 0 min 127 W/m 16,1 km/h (3 Bft) 100,00 %
07.06.2020 10:56 15,8 C 14,4 C 14,4 C 68 % 1006,6 hPa 0,0 l/m 0 min 0 min 126 W/m 22,5 km/h (4 Bft) 97,87 %
07.06.2020 10:58 15,7 C 14,4 C 14,4 C 68 % 1006,6 hPa 0,0 l/m 0 min 0 min 120 W/m 12,9 km/h (3 Bft) 100,00 %
07.06.2020 11:00 15,6 C 14,4 C 14,4 C 69 % 1006,6 hPa 0,0 l/m 0 min 0 min 122 W/m 9,7 km/h (2 Bft) 100,00 %
07.06.2020 11:02 15,6 C 14,4 C 14,4 C 69 % 1006,7 hPa 0,0 l/m 0 min 0 min 139 W/m 16,1 km/h (3 Bft) 100,00 %
07.06.2020 11:04 15,4 C 15,0 C 14,4 C 69 % 1006,7 hPa 0,0 l/m 0 min 0 min 178 W/m 3,2 km/h (1 Bft) 100,00 %
07.06.2020 11:06 15,3 C 15,6 C 14,4 C 70 % 1006,7 hPa 0,0 l/m 0 min 0 min 251 W/m 6,4 km/h (2 Bft) 100,00 %
07.06.2020 11:08 15,3 C 17,8 C 16,1 C 71 % 1006,7 hPa 0,0 l/m 0 min 0 min 323 W/m 3,2 km/h (1 Bft) 100,00 %
07.06.2020 11:10 15,4 C 17,2 C 16,1 C 71 % 1006,7 hPa 0,0 l/m 0 min 0 min 306 W/m 12,9 km/h (3 Bft) 100,00 %
07.06.2020 11:12 15,4 C 17,2 C 16,1 C 70 % 1006,7 hPa 0,0 l/m 0 min 0 min 229 W/m 3,2 km/h (1 Bft) 97,87 %
07.06.2020 11:14 15,4 C 16,1 C 15,6 C 70 % 1006,7 hPa 0,0 l/m 0 min 0 min 156 W/m 9,7 km/h (2 Bft) 100,00 %
07.06.2020 11:16 15,4 C 15,6 C 15,0 C 70 % 1006,8 hPa 0,0 l/m 0 min 0 min 103 W/m 9,7 km/h (2 Bft) 100,00 %
07.06.2020 11:18 15,3 C 14,4 C 15,0 C 70 % 1006,8 hPa 0,0 l/m 0 min 0 min 69 W/m 9,7 km/h (2 Bft) 97,87 %
07.06.2020 11:20 15,3 C 14,4 C 14,4 C 69 % 1006,8 hPa 0,0 l/m 0 min 0 min 65 W/m 16,1 km/h (3 Bft) 97,83 %
07.06.2020 11:22 15,2 C 14,4 C 13,9 C 69 % 1006,8 hPa 0,0 l/m 0 min 0 min 96 W/m 12,9 km/h (3 Bft) 97,87 %
07.06.2020 11:24 15,2 C 15,0 C 13,9 C 69 % 1006,8 hPa 0,0 l/m 0 min 0 min 144 W/m 12,9 km/h (3 Bft) 97,87 %
07.06.2020 11:26 15,2 C 17,8 C 15,0 C 70 % 1006,8 hPa 0,0 l/m 0 min 0 min 169 W/m 6,4 km/h (2 Bft) 97,87 %
07.06.2020 11:28 15,3 C 21,1 C 16,7 C 71 % 1006,9 hPa 0,0 l/m 2 min 0 min 790 W/m 3,2 km/h (1 Bft) 97,87 %
07.06.2020 11:30 15,4 C 20,0 C 16,7 C 70 % 1006,9 hPa 0,0 l/m 2 min 0 min 1001 W/m 19,3 km/h (3 Bft) 97,87 %
07.06.2020 11:32 15,6 C 18,9 C 16,7 C 69 % 1006,9 hPa 0,0 l/m 0 min 0 min 388 W/m 16,1 km/h (3 Bft) 95,65 %
07.06.2020 11:34 15,7 C 18,3 C 16,1 C 68 % 1006,9 hPa 0,0 l/m 0 min 0 min 387 W/m 25,7 km/h (4 Bft) 97,87 %
07.06.2020 11:36 15,7 C 17,8 C 16,1 C 67 % 1007,0 hPa 0,0 l/m 0 min 0 min 389 W/m 16,1 km/h (3 Bft) 97,87 %
07.06.2020 11:38 15,8 C 17,2 C 16,1 C 66 % 1007,0 hPa 0,0 l/m 0 min 0 min 323 W/m 16,1 km/h (3 Bft) 95,74 %
07.06.2020 11:40 15,8 C 17,2 C 15,6 C 65 % 1007,1 hPa 0,0 l/m 0 min 0 min 244 W/m 19,3 km/h (3 Bft) 95,74 %
07.06.2020 11:42 15,8 C 16,1 C 15,0 C 65 % 1007,1 hPa 0,0 l/m 0 min 0 min 192 W/m 22,5 km/h (4 Bft) 97,87 %
07.06.2020 11:44 15,8 C 15,6 C 15,0 C 65 % 1007,2 hPa 0,0 l/m 0 min 0 min 158 W/m 16,1 km/h (3 Bft) 97,83 %
07.06.2020 11:46 15,8 C 15,6 C 15,0 C 65 % 1007,2 hPa 0,0 l/m 0 min 0 min 120 W/m 9,7 km/h (2 Bft) 97,87 %
07.06.2020 11:48 15,7 C 15,0 C 14,4 C 66 % 1007,2 hPa 0,0 l/m 0 min 0 min 99 W/m 12,9 km/h (3 Bft) 95,74 %
07.06.2020 11:50 15,7 C 14,4 C 14,4 C 66 % 1007,2 hPa 0,0 l/m 0 min 0 min 97 W/m 12,9 km/h (3 Bft) 93,62 %
07.06.2020 11:52 15,6 C 14,4 C 14,4 C 66 % 1007,3 hPa 0,0 l/m 0 min 0 min 95 W/m 12,9 km/h (3 Bft) 95,74 %
07.06.2020 11:54 15,5 C 14,4 C 14,4 C 66 % 1007,4 hPa 0,0 l/m 0 min 0 min 99 W/m 19,3 km/h (3 Bft) 91,49 %
07.06.2020 11:56 15,4 C 14,4 C 13,9 C 66 % 1007,4 hPa 0,0 l/m 0 min 0 min 111 W/m 16,1 km/h (3 Bft) 95,65 %
07.06.2020 11:58 15,3 C 14,4 C 13,9 C 67 % 1007,4 hPa 0,0 l/m 0 min 0 min 124 W/m 6,4 km/h (2 Bft) 93,62 %
07.06.2020 12:00 15,3 C 14,4 C 13,9 C 67 % 1007,4 hPa 0,0 l/m 0 min 0 min 140 W/m 16,1 km/h (3 Bft) 95,74 %
07.06.2020 12:02 15,2 C 14,4 C 13,9 C 68 % 1007,8 hPa 0,0 l/m 0 min 0 min 162 W/m 16,1 km/h (3 Bft) 97,87 %
07.06.2020 12:04 15,1 C 14,4 C 13,9 C 68 % 1007,5 hPa 0,0 l/m 0 min 0 min 207 W/m 9,7 km/h (2 Bft) 97,87 %
07.06.2020 12:08 15,1 C 15,6 C 14,4 C 69 % 1007,6 hPa 0,0 l/m 0 min 0 min 270 W/m 12,9 km/h (3 Bft) 94,62 %
07.06.2020 12:10 15,1 C 16,7 C 15,0 C 70 % 1007,6 hPa 0,0 l/m 0 min 0 min 398 W/m 9,7 km/h (2 Bft) 97,87 %
07.06.2020 12:12 15,1 C 16,7 C 15,6 C 70 % 1007,6 hPa 0,0 l/m 0 min 0 min 360 W/m 9,7 km/h (2 Bft) 97,87 %
07.06.2020 12:14 15,1 C 16,7 C 15,6 C 70 % 1007,6 hPa 0,0 l/m 0 min 0 min 306 W/m 12,9 km/h (3 Bft) 91,49 %
07.06.2020 12:16 15,2 C 16,7 C 15,6 C 70 % 1007,6 hPa 0,0 l/m 0 min 0 min 279 W/m 12,9 km/h (3 Bft) 95,74 %
07.06.2020 12:18 15,3 C 16,7 C 15,6 C 70 % 1007,7 hPa 0,0 l/m 0 min 0 min 271 W/m 12,9 km/h (3 Bft) 95,74 %
07.06.2020 12:20 15,3 C 16,1 C 15,6 C 70 % 1007,8 hPa 0,0 l/m 0 min 0 min 276 W/m 16,1 km/h (3 Bft) 97,83 %
07.06.2020 12:22 15,3 C 16,7 C 15,6 C 70 % 1007,8 hPa 0,0 l/m 0 min 0 min 332 W/m 22,5 km/h (4 Bft) 97,87 %
07.06.2020 12:24 15,4 C 17,2 C 16,1 C 70 % 1007,8 hPa 0,0 l/m 0 min 0 min 422 W/m 12,9 km/h (3 Bft) 95,74 %
07.06.2020 12:26 15,4 C 17,8 C 16,1 C 70 % 1007,7 hPa 0,0 l/m 0 min 0 min 431 W/m 12,9 km/h (3 Bft) 95,74 %
07.06.2020 12:28 15,5 C 20,0 C 16,7 C 69 % 1007,8 hPa 0,0 l/m 2 min 0 min 735 W/m 19,3 km/h (3 Bft) 93,62 %
07.06.2020 12:30 15,7 C 21,1 C 17,2 C 69 % 1007,7 hPa 0,0 l/m 2 min 0 min 997 W/m 16,1 km/h (3 Bft) 95,65 %
07.06.2020 12:32 15,8 C 22,2 C 17,2 C 70 % 1007,7 hPa 0,0 l/m 2 min 0 min 1015 W/m 16,1 km/h (3 Bft) 93,62 %
07.06.2020 12:34 16,0 C 22,2 C 17,8 C 68 % 1007,7 hPa 0,0 l/m 2 min 0 min 1034 W/m 29,0 km/h (5 Bft) 95,74 %
07.06.2020 12:36 16,2 C 22,2 C 18,3 C 67 % 1007,7 hPa 0,0 l/m 2 min 0 min 1076 W/m 22,5 km/h (4 Bft) 93,62 %
07.06.2020 12:38 16,3 C 22,8 C 17,8 C 67 % 1007,7 hPa 0,0 l/m 2 min 0 min 1081 W/m 19,3 km/h (3 Bft) 95,74 %
07.06.2020 12:40 16,6 C 22,2 C 18,3 C 67 % 1007,8 hPa 0,0 l/m 2 min 0 min 1119 W/m 22,5 km/h (4 Bft) 93,62 %
07.06.2020 12:42 16,7 C 20,0 C 17,8 C 66 % 1007,9 hPa 0,0 l/m 2 min 0 min 776 W/m 19,3 km/h (3 Bft) 95,65 %
07.06.2020 12:44 16,8 C 18,3 C 17,2 C 65 % 1007,8 hPa 0,0 l/m 0 min 0 min 193 W/m 19,3 km/h (3 Bft) 95,74 %
07.06.2020 12:46 16,8 C 17,2 C 16,7 C 66 % 1007,8 hPa 0,0 l/m 0 min 0 min 188 W/m 25,7 km/h (4 Bft) 95,74 %
07.06.2020 12:48 16,8 C 16,7 C 16,1 C 65 % 1007,8 hPa 0,0 l/m 0 min 0 min 203 W/m 16,1 km/h (3 Bft) 95,74 %
07.06.2020 12:50 16,8 C 17,2 C 16,1 C 66 % 1007,8 hPa 0,0 l/m 0 min 0 min 236 W/m 6,4 km/h (2 Bft) 95,74 %
07.06.2020 12:52 16,8 C 17,2 C 16,1 C 66 % 1007,8 hPa 0,0 l/m 0 min 0 min 291 W/m 9,7 km/h (2 Bft) 95,74 %
07.06.2020 12:54 16,8 C 17,8 C 16,1 C 66 % 1007,8 hPa 0,0 l/m 0 min 0 min 326 W/m 16,1 km/h (3 Bft) 95,65 %
07.06.2020 12:56 16,8 C 18,3 C 16,1 C 66 % 1007,8 hPa 0,0 l/m 0 min 0 min 341 W/m 12,9 km/h (3 Bft) 97,87 %
07.06.2020 13:00 16,8 C 18,3 C 16,7 C 66 % 1007,9 hPa 0,0 l/m 0 min 0 min 377 W/m 6,4 km/h (2 Bft) 97,44 %
07.06.2020 13:02 16,8 C 17,8 C 16,7 C 65 % 1007,9 hPa 0,0 l/m 0 min 0 min 324 W/m 16,1 km/h (3 Bft) 96,43 %
07.06.2020 13:04 16,8 C 17,2 C 16,1 C 64 % 1008,0 hPa 0,0 l/m 0 min 0 min 288 W/m 12,9 km/h (3 Bft) 95,92 %
07.06.2020 13:06 16,8 C 17,8 C 16,1 C 65 % 1007,9 hPa 0,0 l/m 0 min 0 min 273 W/m 6,4 km/h (2 Bft) 95,74 %
07.06.2020 13:08 16,8 C 17,8 C 16,1 C 66 % 1008,0 hPa 0,0 l/m 0 min 0 min 256 W/m 12,9 km/h (3 Bft) 97,87 %
07.06.2020 13:10 16,7 C 17,2 C 16,1 C 65 % 1008,1 hPa 0,0 l/m 0 min 0 min 256 W/m 12,9 km/h (3 Bft) 97,14 %
07.06.2020 13:12 16,7 C 17,2 C 16,1 C 65 % 1008,0 hPa 0,0 l/m 0 min 0 min 281 W/m 12,9 km/h (3 Bft) 98,11 %
07.06.2020 13:14 16,7 C 17,8 C 16,1 C 65 % 1008,0 hPa 0,0 l/m 0 min 0 min 294 W/m 12,9 km/h (3 Bft) 95,74 %
07.06.2020 13:16 16,7 C 17,8 C 16,1 C 65 % 1008,1 hPa 0,0 l/m 0 min 0 min 292 W/m 12,9 km/h (3 Bft) 97,87 %
07.06.2020 13:18 16,7 C 17,8 C 16,1 C 65 % 1008,1 hPa 0,0 l/m 0 min 0 min 290 W/m 12,9 km/h (3 Bft) 97,87 %
07.06.2020 13:20 16,7 C 17,2 C 15,6 C 65 % 1008,1 hPa 0,0 l/m 0 min 0 min 287 W/m 16,1 km/h (3 Bft) 97,96 %
07.06.2020 13:22 16,6 C 17,2 C 15,6 C 65 % 1008,1 hPa 0,0 l/m 0 min 0 min 292 W/m 19,3 km/h (3 Bft) 97,87 %
07.06.2020 13:24 16,6 C 17,2 C 16,1 C 66 % 1008,1 hPa 0,0 l/m 0 min 0 min 262 W/m 9,7 km/h (2 Bft) 100,00 %
07.06.2020 13:26 16,6 C 17,2 C 15,6 C 66 % 1008,2 hPa 0,0 l/m 0 min 0 min 244 W/m 19,3 km/h (3 Bft) 100,00 %
07.06.2020 13:28 16,6 C 17,2 C 15,6 C 65 % 1008,1 hPa 0,0 l/m 0 min 0 min 286 W/m 9,7 km/h (2 Bft) 100,00 %
07.06.2020 13:30 16,6 C 18,3 C 16,1 C 66 % 1008,2 hPa 0,0 l/m 0 min 0 min 354 W/m 19,3 km/h (3 Bft) 100,00 %
07.06.2020 13:32 16,6 C 19,4 C 16,7 C 66 % 1008,2 hPa 0,0 l/m 0 min 0 min 378 W/m 12,9 km/h (3 Bft) 100,00 %
07.06.2020 13:34 16,7 C 21,1 C 17,8 C 66 % 1008,2 hPa 0,0 l/m 2 min 0 min 471 W/m 12,9 km/h (3 Bft) 97,30 %
07.06.2020 13:36 16,8 C 22,8 C 18,9 C 68 % 1008,1 hPa 0,0 l/m 2 min 0 min 471 W/m 12,9 km/h (3 Bft) 100,00 %
07.06.2020 13:38 16,9 C 24,4 C 21,1 C 68 % 1008,1 hPa 0,0 l/m 2 min 0 min 913 W/m 12,9 km/h (3 Bft) 100,00 %
07.06.2020 13:40 17,3 C 25,0 C 23,3 C 68 % 1008,2 hPa 0,0 l/m 2 min 0 min 873 W/m 19,3 km/h (3 Bft) 100,00 %
07.06.2020 13:42 17,5 C 23,3 C 21,1 C 66 % 1008,2 hPa 0,0 l/m 2 min 0 min 844 W/m 12,9 km/h (3 Bft) 100,00 %
07.06.2020 13:44 17,6 C 20,6 C 19,4 C 66 % 1008,3 hPa 0,0 l/m 0 min 0 min 321 W/m 19,3 km/h (3 Bft) 100,00 %
07.06.2020 13:46 17,7 C 19,4 C 18,9 C 65 % 1008,2 hPa 0,0 l/m 0 min 0 min 229 W/m 6,4 km/h (2 Bft) 96,00 %
07.06.2020 13:48 17,8 C 18,9 C 18,3 C 64 % 1008,3 hPa 0,0 l/m 0 min 0 min 217 W/m 9,7 km/h (2 Bft) 97,87 %
07.06.2020 13:50 17,7 C 17,8 C 17,2 C 63 % 1008,3 hPa 0,0 l/m 0 min 0 min 222 W/m 12,9 km/h (3 Bft) 97,87 %
07.06.2020 13:52 17,7 C 17,2 C 17,2 C 63 % 1008,4 hPa 0,0 l/m 0 min 0 min 230 W/m 16,1 km/h (3 Bft) 94,29 %
07.06.2020 13:54 17,7 C 17,2 C 16,7 C 63 % 1008,4 hPa 0,0 l/m 0 min 0 min 247 W/m 9,7 km/h (2 Bft) 97,87 %
07.06.2020 13:56 17,6 C 17,8 C 16,7 C 63 % 1008,4 hPa 0,0 l/m 0 min 0 min 240 W/m 9,7 km/h (2 Bft) 94,55 %
07.06.2020 13:58 17,6 C 17,8 C 16,7 C 63 % 1008,4 hPa 0,0 l/m 0 min 0 min 334 W/m 16,1 km/h (3 Bft) 97,87 %
07.06.2020 14:00 17,5 C 17,8 C 16,7 C 63 % 1008,4 hPa 0,0 l/m 0 min 0 min 396 W/m 19,3 km/h (3 Bft) 95,74 %
07.06.2020 14:02 17,5 C 18,3 C 16,7 C 63 % 1008,4 hPa 0,0 l/m 0 min 0 min 391 W/m 9,7 km/h (2 Bft) 97,87 %
07.06.2020 14:04 17,4 C 18,3 C 16,7 C 63 % 1008,4 hPa 0,0 l/m 0 min 0 min 335 W/m 6,4 km/h (2 Bft) 97,87 %
07.06.2020 14:06 17,4 C 18,3 C 16,7 C 63 % 1008,4 hPa 0,0 l/m 0 min 0 min 292 W/m 3,2 km/h (1 Bft) 93,88 %
07.06.2020 14:08 17,4 C 17,8 C 16,7 C 63 % 1008,5 hPa 0,0 l/m 0 min 0 min 263 W/m 6,4 km/h (2 Bft) 97,22 %
07.06.2020 14:10 17,4 C 17,8 C 16,7 C 63 % 1008,4 hPa 0,0 l/m 0 min 0 min 253 W/m 16,1 km/h (3 Bft) 97,87 %
07.06.2020 14:12 17,4 C 17,8 C 16,7 C 63 % 1008,5 hPa 0,0 l/m 0 min 0 min 240 W/m 3,2 km/h (1 Bft) 98,18 %
07.06.2020 14:14 17,4 C 17,8 C 16,7 C 63 % 1008,5 hPa 0,0 l/m 0 min 0 min 230 W/m 12,9 km/h (3 Bft) 100,00 %
07.06.2020 14:16 17,3 C 17,2 C 16,1 C 61 % 1008,6 hPa 0,0 l/m 0 min 0 min 238 W/m 12,9 km/h (3 Bft) 97,87 %
07.06.2020 14:18 17,3 C 17,2 C 16,7 C 61 % 1008,5 hPa 0,0 l/m 0 min 0 min 272 W/m 12,9 km/h (3 Bft) 97,83 %
07.06.2020 14:20 17,3 C 17,8 C 16,7 C 63 % 1008,5 hPa 0,0 l/m 0 min 0 min 305 W/m 12,9 km/h (3 Bft) 98,00 %
07.06.2020 14:22 17,3 C 18,9 C 16,7 C 63 % 1008,5 hPa 0,0 l/m 0 min 0 min 318 W/m 9,7 km/h (2 Bft) 97,22 %
07.06.2020 14:24 17,3 C 18,9 C 17,2 C 63 % 1008,6 hPa 0,0 l/m 0 min 0 min 326 W/m 9,7 km/h (2 Bft) 95,74 %
07.06.2020 14:26 17,3 C 20,0 C 17,2 C 64 % 1008,5 hPa 0,0 l/m 0 min 0 min 350 W/m 9,7 km/h (2 Bft) 95,74 %
07.06.2020 14:28 17,4 C 20,0 C 17,2 C 63 % 1008,6 hPa 0,0 l/m 0 min 0 min 350 W/m 12,9 km/h (3 Bft) 97,83 %
07.06.2020 14:30 17,5 C 20,0 C 17,2 C 64 % 1008,5 hPa 0,0 l/m 0 min 0 min 360 W/m 6,4 km/h (2 Bft) 100,00 %
07.06.2020 14:32 17,6 C 19,4 C 17,2 C 64 % 1008,5 hPa 0,0 l/m 0 min 0 min 330 W/m 6,4 km/h (2 Bft) 98,11 %
07.06.2020 14:34 17,7 C 18,9 C 17,2 C 63 % 1008,6 hPa 0,0 l/m 0 min 0 min 326 W/m 9,7 km/h (2 Bft) 100,00 %
07.06.2020 14:36 17,7 C 21,1 C 17,2 C 62 % 1008,7 hPa 0,0 l/m 2 min 0 min 481 W/m 19,3 km/h (3 Bft) 100,00 %
07.06.2020 14:38 17,9 C 23,3 C 17,8 C 63 % 1008,6 hPa 0,0 l/m 2 min 0 min 1125 W/m 12,9 km/h (3 Bft) 100,00 %
07.06.2020 14:40 18,1 C 23,3 C 18,3 C 62 % 1008,6 hPa 0,0 l/m 2 min 0 min 1047 W/m 19,3 km/h (3 Bft) 97,87 %
07.06.2020 14:42 18,2 C 23,9 C 18,3 C 62 % 1008,7 hPa 0,0 l/m 2 min 0 min 1010 W/m 16,1 km/h (3 Bft) 100,00 %
07.06.2020 14:44 18,3 C 24,4 C 18,3 C 62 % 1008,6 hPa 0,0 l/m 2 min 0 min 1008 W/m 12,9 km/h (3 Bft) 100,00 %
07.06.2020 14:46 18,5 C 25,0 C 18,3 C 62 % 1008,6 hPa 0,0 l/m 2 min 0 min 1032 W/m 16,1 km/h (3 Bft) 100,00 %
07.06.2020 14:48 18,7 C 23,9 C 18,3 C 62 % 1008,6 hPa 0,0 l/m 2 min 0 min 892 W/m 9,7 km/h (2 Bft) 100,00 %
07.06.2020 14:50 18,8 C 21,1 C 17,8 C 59 % 1008,6 hPa 0,0 l/m 0 min 0 min 180 W/m 6,4 km/h (2 Bft) 97,22 %
07.06.2020 14:52 18,8 C 21,1 C 17,8 C 58 % 1008,7 hPa 0,0 l/m 0 min 0 min 231 W/m 6,4 km/h (2 Bft) 100,00 %
07.06.2020 14:54 18,8 C 23,3 C 17,8 C 58 % 1008,7 hPa 0,0 l/m 2 min 0 min 1098 W/m 9,7 km/h (2 Bft) 100,00 %
07.06.2020 14:56 18,8 C 22,8 C 17,8 C 59 % 1008,6 hPa 0,0 l/m 2 min 0 min 799 W/m 9,7 km/h (2 Bft) 100,00 %
07.06.2020 14:58 18,9 C 20,6 C 17,8 C 59 % 1008,7 hPa 0,0 l/m 0 min 0 min 256 W/m 12,9 km/h (3 Bft) 100,00 %
07.06.2020 15:00 18,9 C 20,6 C 17,8 C 60 % 1008,7 hPa 0,0 l/m 0 min 0 min 262 W/m 3,2 km/h (1 Bft) 98,00 %
07.06.2020 15:02 18,9 C 20,0 C 17,8 C 58 % 1008,7 hPa 0,0 l/m 0 min 0 min 234 W/m 6,4 km/h (2 Bft) 97,92 %
07.06.2020 15:04 18,9 C 22,2 C 17,8 C 57 % 1008,7 hPa 0,0 l/m 0 min 0 min 268 W/m 22,5 km/h (4 Bft) 95,65 %
07.06.2020 15:06 18,9 C 23,9 C 17,8 C 58 % 1008,6 hPa 0,0 l/m 2 min 0 min 1026 W/m 12,9 km/h (3 Bft) 97,87 %
07.06.2020 15:08 19,1 C 25,0 C 18,3 C 59 % 1008,7 hPa 0,0 l/m 2 min 0 min 1006 W/m 12,9 km/h (3 Bft) 97,87 %
07.06.2020 15:10 19,3 C 25,0 C 18,3 C 58 % 1008,7 hPa 0,0 l/m 2 min 0 min 1000 W/m 6,4 km/h (2 Bft) 97,87 %
07.06.2020 15:12 19,4 C 25,0 C 18,3 C 58 % 1008,7 hPa 0,0 l/m 2 min 0 min 1007 W/m 9,7 km/h (2 Bft) 97,87 %
07.06.2020 15:14 19,6 C 25,6 C 18,3 C 59 % 1008,7 hPa 0,0 l/m 2 min 0 min 1014 W/m 3,2 km/h (1 Bft) 100,00 %
07.06.2020 15:16 19,8 C 26,7 C 18,3 C 58 % 1008,7 hPa 0,0 l/m 2 min 0 min 1014 W/m 6,4 km/h (2 Bft) 95,74 %
07.06.2020 15:18 19,9 C 26,7 C 18,9 C 57 % 1008,7 hPa 0,0 l/m 2 min 0 min 1018 W/m 6,4 km/h (2 Bft) 97,87 %
07.06.2020 15:20 20,1 C 26,1 C 18,9 C 57 % 1008,7 hPa 0,0 l/m 2 min 0 min 1020 W/m 12,9 km/h (3 Bft) 97,87 %
07.06.2020 15:22 20,2 C 25,0 C 18,9 C 57 % 1008,8 hPa 0,0 l/m 2 min 0 min 926 W/m 6,4 km/h (2 Bft) 97,87 %
07.06.2020 15:24 20,3 C 25,0 C 18,9 C 59 % 1008,7 hPa 0,0 l/m 2 min 0 min 905 W/m 3,2 km/h (1 Bft) 97,87 %
07.06.2020 15:26 20,4 C 25,0 C 18,9 C 55 % 1008,8 hPa 0,0 l/m 2 min 0 min 905 W/m 12,9 km/h (3 Bft) 97,83 %
07.06.2020 15:28 20,6 C 26,1 C 18,9 C 56 % 1008,8 hPa 0,0 l/m 2 min 0 min 984 W/m 12,9 km/h (3 Bft) 93,62 %
07.06.2020 15:30 20,7 C 25,6 C 18,9 C 58 % 1008,8 hPa 0,0 l/m 2 min 0 min 1055 W/m 3,2 km/h (1 Bft) 97,87 %
07.06.2020 15:32 20,7 C 25,0 C 18,9 C 55 % 1008,8 hPa 0,0 l/m 2 min 0 min 431 W/m 25,7 km/h (4 Bft) 97,87 %
07.06.2020 15:34 20,8 C 23,3 C 18,9 C 52 % 1008,8 hPa 0,0 l/m 0 min 0 min 401 W/m 16,1 km/h (3 Bft) 97,87 %
07.06.2020 15:36 20,8 C 23,9 C 18,9 C 53 % 1008,8 hPa 0,0 l/m 2 min 0 min 824 W/m 9,7 km/h (2 Bft) 97,87 %
07.06.2020 15:38 20,8 C 25,0 C 18,9 C 55 % 1008,8 hPa 0,0 l/m 2 min 0 min 982 W/m 12,9 km/h (3 Bft) 98,21 %
07.06.2020 15:40 20,8 C 26,1 C 19,4 C 55 % 1008,7 hPa 0,0 l/m 2 min 0 min 999 W/m 6,4 km/h (2 Bft) 97,83 %
07.06.2020 15:42 20,9 C 24,4 C 19,4 C 54 % 1008,8 hPa 0,0 l/m 2 min 0 min 1026 W/m 35,4 km/h (5 Bft) 97,87 %
07.06.2020 15:44 20,8 C 23,3 C 19,4 C 55 % 1008,7 hPa 0,0 l/m 2 min 0 min 1049 W/m 19,3 km/h (3 Bft) 100,00 %
07.06.2020 15:46 20,8 C 22,2 C 18,9 C 55 % 1008,8 hPa 0,0 l/m 2 min 0 min 577 W/m 16,1 km/h (3 Bft) 100,00 %
07.06.2020 15:48 20,7 C 21,1 C 18,9 C 55 % 1008,8 hPa 0,0 l/m 0 min 0 min 398 W/m 6,4 km/h (2 Bft) 95,74 %
07.06.2020 15:50 20,6 C 20,6 C 18,9 C 54 % 1008,7 hPa 0,0 l/m 0 min 0 min 332 W/m 12,9 km/h (3 Bft) 97,87 %
07.06.2020 15:52 20,5 C 20,0 C 18,3 C 53 % 1008,9 hPa 0,0 l/m 0 min 0 min 351 W/m 19,3 km/h (3 Bft) 100,00 %
07.06.2020 15:54 20,3 C 19,4 C 18,3 C 53 % 1008,8 hPa 0,0 l/m 0 min 0 min 316 W/m 9,7 km/h (2 Bft) 100,00 %
07.06.2020 15:56 20,2 C 20,0 C 18,3 C 54 % 1008,8 hPa 0,0 l/m 0 min 0 min 292 W/m 6,4 km/h (2 Bft) 96,00 %
07.06.2020 15:58 20,1 C 19,4 C 18,3 C 54 % 1008,9 hPa 0,0 l/m 0 min 0 min 320 W/m 25,7 km/h (4 Bft) 97,14 %
07.06.2020 16:00 20,0 C 20,0 C 18,3 C 54 % 1008,8 hPa 0,0 l/m 0 min 0 min 380 W/m 12,9 km/h (3 Bft) 95,65 %
07.06.2020 16:02 19,9 C 20,6 C 18,3 C 55 % 1008,9 hPa 0,0 l/m 2 min 0 min 456 W/m 6,4 km/h (2 Bft) 100,00 %
07.06.2020 16:04 19,8 C 20,0 C 18,3 C 53 % 1008,9 hPa 0,0 l/m 0 min 0 min 342 W/m 12,9 km/h (3 Bft) 100,00 %
07.06.2020 16:06 19,7 C 20,0 C 18,3 C 55 % 1008,9 hPa 0,0 l/m 0 min 0 min 265 W/m 6,4 km/h (2 Bft) 97,87 %
07.06.2020 16:08 19,7 C 19,4 C 18,3 C 54 % 1008,9 hPa 0,0 l/m 0 min 0 min 203 W/m 9,7 km/h (2 Bft) 93,62 %
07.06.2020 16:10 19,6 C 18,9 C 17,8 C 54 % 1008,9 hPa 0,0 l/m 0 min 0 min 148 W/m 16,1 km/h (3 Bft) 96,00 %
07.06.2020 16:12 19,4 C 18,9 C 17,8 C 57 % 1008,9 hPa 0,0 l/m 0 min 0 min 118 W/m 3,2 km/h (1 Bft) 97,96 %
07.06.2020 16:14 19,4 C 18,3 C 17,8 C 56 % 1008,9 hPa 0,0 l/m 0 min 0 min 105 W/m 16,1 km/h (3 Bft) 93,62 %
07.06.2020 16:16 19,3 C 17,8 C 17,2 C 55 % 1008,9 hPa 0,0 l/m 0 min 0 min 113 W/m 12,9 km/h (3 Bft) 95,74 %
07.06.2020 16:18 19,1 C 17,8 C 17,2 C 56 % 1009,0 hPa 0,0 l/m 0 min 0 min 144 W/m 6,4 km/h (2 Bft) 95,74 %
07.06.2020 16:20 19,1 C 17,8 C 17,2 C 57 % 1009,0 hPa 0,0 l/m 0 min 0 min 179 W/m 0,0 km/h (0 Bft) 95,65 %
07.06.2020 16:22 18,9 C 18,3 C 17,2 C 57 % 1009,0 hPa 0,0 l/m 0 min 0 min 183 W/m 3,2 km/h (1 Bft) 91,67 %
07.06.2020 16:24 18,8 C 18,3 C 17,2 C 57 % 1009,1 hPa 0,0 l/m 0 min 0 min 165 W/m 6,4 km/h (2 Bft) 94,34 %
07.06.2020 16:26 18,8 C 17,8 C 17,2 C 57 % 1009,0 hPa 0,0 l/m 0 min 0 min 148 W/m 9,7 km/h (2 Bft) 95,92 %
07.06.2020 16:28 18,7 C 17,8 C 17,2 C 58 % 1009,1 hPa 0,0 l/m 0 min 0 min 136 W/m 6,4 km/h (2 Bft) 95,74 %
07.06.2020 16:30 18,6 C 17,8 C 17,2 C 58 % 1009,1 hPa 0,0 l/m 0 min 0 min 127 W/m 3,2 km/h (1 Bft) 95,74 %
07.06.2020 16:32 18,6 C 17,8 C 16,7 C 58 % 1009,1 hPa 0,0 l/m 0 min 0 min 120 W/m 6,4 km/h (2 Bft) 95,83 %
07.06.2020 16:34 18,4 C 17,2 C 16,7 C 58 % 1009,1 hPa 0,0 l/m 0 min 0 min 115 W/m 6,4 km/h (2 Bft) 94,59 %
07.06.2020 16:36 18,4 C 17,2 C 16,7 C 58 % 1009,2 hPa 0,0 l/m 0 min 0 min 114 W/m 12,9 km/h (3 Bft) 95,65 %
07.06.2020 16:38 18,3 C 17,2 C 16,7 C 59 % 1009,2 hPa 0,0 l/m 0 min 0 min 118 W/m 6,4 km/h (2 Bft) 96,61 %
07.06.2020 16:40 18,2 C 17,2 C 16,7 C 59 % 1009,2 hPa 0,0 l/m 0 min 0 min 126 W/m 9,7 km/h (2 Bft) 94,29 %
07.06.2020 16:42 18,2 C 17,2 C 16,7 C 60 % 1009,2 hPa 0,0 l/m 0 min 0 min 119 W/m 9,7 km/h (2 Bft) 97,87 %
07.06.2020 16:44 18,1 C 17,2 C 16,7 C 60 % 1009,3 hPa 0,0 l/m 0 min 0 min 110 W/m 9,7 km/h (2 Bft) 93,62 %
07.06.2020 16:46 18,0 C 17,2 C 16,7 C 60 % 1009,2 hPa 0,0 l/m 0 min 0 min 111 W/m 12,9 km/h (3 Bft) 95,74 %
07.06.2020 16:48 17,9 C 17,2 C 16,7 C 61 % 1009,3 hPa 0,0 l/m 0 min 0 min 121 W/m 6,4 km/h (2 Bft) 95,65 %
07.06.2020 16:50 17,9 C 17,2 C 16,7 C 60 % 1009,3 hPa 0,0 l/m 0 min 0 min 132 W/m 9,7 km/h (2 Bft) 95,74 %
07.06.2020 16:52 17,8 C 17,2 C 16,7 C 61 % 1009,3 hPa 0,0 l/m 0 min 0 min 132 W/m 12,9 km/h (3 Bft) 98,18 %
07.06.2020 16:54 17,8 C 17,2 C 16,7 C 61 % 1009,3 hPa 0,0 l/m 0 min 0 min 125 W/m 3,2 km/h (1 Bft) 97,87 %
07.06.2020 16:56 17,8 C 17,2 C 16,7 C 62 % 1009,3 hPa 0,0 l/m 0 min 0 min 121 W/m 6,4 km/h (2 Bft) 95,74 %
07.06.2020 16:58 17,8 C 17,2 C 16,7 C 62 % 1009,3 hPa 0,0 l/m 0 min 0 min 124 W/m 16,1 km/h (3 Bft) 97,87 %
07.06.2020 17:00 17,7 C 17,2 C 16,7 C 62 % 1009,3 hPa 0,0 l/m 0 min 0 min 144 W/m 12,9 km/h (3 Bft) 97,87 %
07.06.2020 17:02 17,7 C 17,8 C 16,1 C 63 % 1009,4 hPa 0,0 l/m 0 min 0 min 198 W/m 6,4 km/h (2 Bft) 97,83 %
07.06.2020 17:04 17,7 C 18,3 C 16,7 C 62 % 1009,4 hPa 0,0 l/m 0 min 0 min 258 W/m 9,7 km/h (2 Bft) 95,74 %
07.06.2020 17:06 17,7 C 18,3 C 16,7 C 62 % 1009,4 hPa 0,0 l/m 0 min 0 min 296 W/m 6,4 km/h (2 Bft) 93,62 %
07.06.2020 17:08 17,8 C 18,9 C 17,2 C 63 % 1009,4 hPa 0,0 l/m 0 min 0 min 280 W/m 6,4 km/h (2 Bft) 98,00 %
07.06.2020 17:10 17,8 C 18,9 C 17,2 C 62 % 1009,4 hPa 0,0 l/m 0 min 0 min 247 W/m 6,4 km/h (2 Bft) 93,62 %
07.06.2020 17:12 17,9 C 18,9 C 17,2 C 63 % 1009,4 hPa 0,0 l/m 0 min 0 min 218 W/m 9,7 km/h (2 Bft) 95,65 %
07.06.2020 17:14 17,9 C 18,9 C 17,2 C 63 % 1009,4 hPa 0,0 l/m 0 min 0 min 199 W/m 3,2 km/h (1 Bft) 100,00 %
07.06.2020 17:16 17,9 C 18,9 C 17,2 C 62 % 1009,4 hPa 0,0 l/m 0 min 0 min 185 W/m 6,4 km/h (2 Bft) 100,00 %
07.06.2020 17:18 17,9 C 18,3 C 17,2 C 62 % 1009,4 hPa 0,0 l/m 0 min 0 min 182 W/m 6,4 km/h (2 Bft) 100,00 %
07.06.2020 17:20 18,0 C 18,3 C 16,7 C 63 % 1009,4 hPa 0,0 l/m 0 min 0 min 183 W/m 3,2 km/h (1 Bft) 97,87 %
07.06.2020 17:22 18,0 C 18,3 C 16,7 C 64 % 1009,4 hPa 0,0 l/m 0 min 0 min 174 W/m 0,0 km/h (0 Bft) 100,00 %
07.06.2020 17:24 18,0 C 18,3 C 16,7 C 63 % 1009,4 hPa 0,0 l/m 0 min 0 min 157 W/m 6,4 km/h (2 Bft) 100,00 %
07.06.2020 17:26 18,0 C 17,8 C 16,7 C 62 % 1009,4 hPa 0,0 l/m 0 min 0 min 143 W/m 6,4 km/h (2 Bft) 100,00 %
07.06.2020 17:28 18,0 C 17,8 C 16,7 C 62 % 1009,5 hPa 0,0 l/m 0 min 0 min 139 W/m 3,2 km/h (1 Bft) 100,00 %
07.06.2020 17:30 18,0 C 17,8 C 16,7 C 62 % 1009,5 hPa 0,0 l/m 0 min 0 min 139 W/m 6,4 km/h (2 Bft) 97,87 %
07.06.2020 17:32 18,0 C 17,8 C 16,7 C 62 % 1009,5 hPa 0,0 l/m 0 min 0 min 139 W/m 6,4 km/h (2 Bft) 100,00 %
07.06.2020 17:34 18,0 C 17,8 C 16,7 C 64 % 1009,5 hPa 0,0 l/m 0 min 0 min 134 W/m 3,2 km/h (1 Bft) 97,87 %
07.06.2020 17:36 18,0 C 17,8 C 16,7 C 64 % 1009,5 hPa 0,0 l/m 0 min 0 min 123 W/m 3,2 km/h (1 Bft) 100,00 %
07.06.2020 17:38 18,0 C 17,8 C 16,7 C 64 % 1009,5 hPa 0,0 l/m 0 min 0 min 109 W/m 0,0 km/h (0 Bft) 100,00 %
07.06.2020 17:40 18,0 C 17,8 C 16,1 C 62 % 1009,5 hPa 0,0 l/m 0 min 0 min 100 W/m 9,7 km/h (2 Bft) 100,00 %
07.06.2020 17:42 17,9 C 17,8 C 16,1 C 62 % 1009,6 hPa 0,0 l/m 0 min 0 min 100 W/m 9,7 km/h (2 Bft) 100,00 %
07.06.2020 17:44 17,9 C 17,8 C 16,1 C 62 % 1009,5 hPa 0,0 l/m 0 min 0 min 113 W/m 9,7 km/h (2 Bft) 100,00 %
07.06.2020 17:46 17,9 C 17,8 C 16,1 C 63 % 1009,6 hPa 0,0 l/m 0 min 0 min 135 W/m 3,2 km/h (1 Bft) 100,00 %
07.06.2020 17:48 17,9 C 17,8 C 16,1 C 63 % 1009,7 hPa 0,0 l/m 0 min 0 min 160 W/m 6,4 km/h (2 Bft) 100,00 %
07.06.2020 17:50 17,9 C 17,8 C 16,1 C 62 % 1009,7 hPa 0,0 l/m 0 min 0 min 179 W/m 12,9 km/h (3 Bft) 100,00 %
07.06.2020 17:52 17,9 C 17,8 C 16,7 C 61 % 1009,7 hPa 0,0 l/m 0 min 0 min 194 W/m 6,4 km/h (2 Bft) 100,00 %
07.06.2020 17:54 17,8 C 17,8 C 16,7 C 61 % 1009,6 hPa 0,0 l/m 0 min 0 min 202 W/m 3,2 km/h (1 Bft) 100,00 %
07.06.2020 17:56 17,8 C 18,3 C 16,7 C 61 % 1009,7 hPa 0,0 l/m 0 min 0 min 195 W/m 9,7 km/h (2 Bft) 97,87 %
07.06.2020 17:58 17,8 C 17,8 C 16,7 C 60 % 1009,6 hPa 0,0 l/m 0 min 0 min 193 W/m 22,5 km/h (4 Bft) 97,87 %
07.06.2020 18:00 17,8 C 17,8 C 16,7 C 60 % 1009,7 hPa 0,0 l/m 0 min 0 min 189 W/m 12,9 km/h (3 Bft) 97,83 %
07.06.2020 18:02 17,8 C 17,8 C 16,7 C 60 % 1009,7 hPa 0,0 l/m 0 min 0 min 183 W/m 22,5 km/h (4 Bft) 97,87 %
07.06.2020 18:04 17,8 C 17,8 C 16,7 C 59 % 1009,7 hPa 0,0 l/m 0 min 0 min 181 W/m 16,1 km/h (3 Bft) 95,74 %
07.06.2020 18:08 17,8 C 17,8 C 16,7 C 61 % 1009,7 hPa 0,0 l/m 0 min 0 min 177 W/m 6,4 km/h (2 Bft) 97,87 %
07.06.2020 18:10 17,8 C 17,8 C 16,7 C 61 % 1009,8 hPa 0,0 l/m 0 min 0 min 170 W/m 22,5 km/h (4 Bft) 97,96 %
07.06.2020 18:12 17,8 C 17,8 C 16,7 C 60 % 1009,8 hPa 0,0 l/m 0 min 0 min 164 W/m 16,1 km/h (3 Bft) 97,14 %
07.06.2020 18:14 17,8 C 17,8 C 16,7 C 60 % 1009,8 hPa 0,0 l/m 0 min 0 min 162 W/m 12,9 km/h (3 Bft) 97,87 %
07.06.2020 18:16 17,8 C 17,8 C 16,7 C 60 % 1009,8 hPa 0,0 l/m 0 min 0 min 160 W/m 12,9 km/h (3 Bft) 97,87 %
07.06.2020 18:18 17,8 C 17,8 C 16,7 C 60 % 1009,7 hPa 0,0 l/m 0 min 0 min 155 W/m 12,9 km/h (3 Bft) 97,87 %
07.06.2020 18:20 17,8 C 17,8 C 16,7 C 59 % 1009,7 hPa 0,0 l/m 0 min 0 min 152 W/m 6,4 km/h (2 Bft) 98,11 %
07.06.2020 18:22 17,8 C 17,8 C 16,7 C 61 % 1009,8 hPa 0,0 l/m 0 min 0 min 153 W/m 6,4 km/h (2 Bft) 97,87 %
07.06.2020 18:24 17,8 C 17,8 C 16,7 C 60 % 1009,8 hPa 0,0 l/m 0 min 0 min 163 W/m 6,4 km/h (2 Bft) 97,83 %
07.06.2020 18:26 17,8 C 17,8 C 16,7 C 60 % 1009,9 hPa 0,0 l/m 0 min 0 min 175 W/m 16,1 km/h (3 Bft) 95,74 %
07.06.2020 18:28 17,8 C 17,8 C 16,7 C 59 % 1009,8 hPa 0,0 l/m 0 min 0 min 204 W/m 12,9 km/h (3 Bft) 97,87 %
07.06.2020 18:30 17,8 C 17,8 C 16,7 C 60 % 1009,8 hPa 0,0 l/m 0 min 0 min 206 W/m 6,4 km/h (2 Bft) 97,87 %
07.06.2020 18:32 17,8 C 17,8 C 16,7 C 60 % 1009,8 hPa 0,0 l/m 0 min 0 min 178 W/m 6,4 km/h (2 Bft) 95,74 %
07.06.2020 18:34 17,8 C 18,3 C 16,7 C 61 % 1009,8 hPa 0,0 l/m 0 min 0 min 177 W/m 0,0 km/h (0 Bft) 97,87 %
07.06.2020 18:36 17,8 C 17,8 C 16,7 C 60 % 1009,9 hPa 0,0 l/m 0 min 0 min 170 W/m 12,9 km/h (3 Bft) 95,92 %
07.06.2020 18:38 17,8 C 17,8 C 16,7 C 60 % 1009,9 hPa 0,0 l/m 0 min 0 min 162 W/m 12,9 km/h (3 Bft) 96,00 %
07.06.2020 18:40 17,8 C 17,8 C 16,7 C 60 % 1009,8 hPa 0,0 l/m 0 min 0 min 151 W/m 6,4 km/h (2 Bft) 97,14 %
07.06.2020 18:42 17,8 C 17,8 C 16,7 C 60 % 1009,8 hPa 0,0 l/m 0 min 0 min 144 W/m 0,0 km/h (0 Bft) 92,45 %
07.06.2020 18:44 17,8 C 17,8 C 16,7 C 60 % 1009,8 hPa 0,0 l/m 0 min 0 min 138 W/m 3,2 km/h (1 Bft) 93,62 %
07.06.2020 18:46 17,8 C 17,8 C 16,7 C 61 % 1009,8 hPa 0,0 l/m 0 min 0 min 133 W/m 3,2 km/h (1 Bft) 95,74 %
07.06.2020 18:48 17,8 C 17,8 C 16,7 C 60 % 1009,9 hPa 0,0 l/m 0 min 0 min 127 W/m 12,9 km/h (3 Bft) 95,65 %
07.06.2020 18:50 17,8 C 17,2 C 16,7 C 60 % 1009,9 hPa 0,0 l/m 0 min 0 min 123 W/m 6,4 km/h (2 Bft) 97,87 %
07.06.2020 18:52 17,8 C 17,2 C 16,7 C 60 % 1009,9 hPa 0,0 l/m 0 min 0 min 115 W/m 12,9 km/h (3 Bft) 97,87 %
07.06.2020 18:54 17,8 C 17,2 C 16,7 C 60 % 1009,9 hPa 0,0 l/m 0 min 0 min 106 W/m 6,4 km/h (2 Bft) 95,74 %
07.06.2020 18:56 17,8 C 17,2 C 16,7 C 60 % 1009,9 hPa 0,0 l/m 0 min 0 min 100 W/m 3,2 km/h (1 Bft) 97,87 %
07.06.2020 18:58 17,8 C 17,2 C 16,7 C 59 % 1009,9 hPa 0,0 l/m 0 min 0 min 94 W/m 6,4 km/h (2 Bft) 95,92 %
07.06.2020 19:00 17,7 C 17,2 C 16,7 C 60 % 1010,0 hPa 0,0 l/m 0 min 0 min 92 W/m 3,2 km/h (1 Bft) 95,74 %
07.06.2020 19:02 17,7 C 17,2 C 16,7 C 61 % 1009,9 hPa 0,0 l/m 0 min 0 min 91 W/m 0,0 km/h (0 Bft) 98,00 %
07.06.2020 19:04 17,7 C 17,2 C 16,7 C 61 % 1010,0 hPa 0,0 l/m 0 min 0 min 93 W/m 6,4 km/h (2 Bft) 95,45 %
07.06.2020 19:06 17,7 C 17,2 C 16,7 C 61 % 1010,0 hPa 0,0 l/m 0 min 0 min 96 W/m 3,2 km/h (1 Bft) 97,87 %
07.06.2020 19:08 17,7 C 17,2 C 16,7 C 61 % 1010,0 hPa 0,0 l/m 0 min 0 min 100 W/m 3,2 km/h (1 Bft) 97,87 %
07.06.2020 19:10 17,7 C 17,2 C 16,7 C 62 % 1010,0 hPa 0,0 l/m 0 min 0 min 102 W/m 3,2 km/h (1 Bft) 97,87 %
07.06.2020 19:12 17,7 C 17,2 C 16,7 C 62 % 1010,0 hPa 0,0 l/m 0 min 0 min 102 W/m 3,2 km/h (1 Bft) 97,14 %
07.06.2020 19:14 17,7 C 17,2 C 16,7 C 62 % 1010,0 hPa 0,0 l/m 0 min 0 min 98 W/m 3,2 km/h (1 Bft) 97,87 %
07.06.2020 19:16 17,7 C 17,2 C 16,7 C 62 % 1010,0 hPa 0,0 l/m 0 min 0 min 94 W/m 3,2 km/h (1 Bft) 98,18 %
07.06.2020 19:18 17,7 C 17,2 C 16,1 C 61 % 1010,1 hPa 0,0 l/m 0 min 0 min 91 W/m 6,4 km/h (2 Bft) 95,74 %
07.06.2020 19:20 17,7 C 17,2 C 16,1 C 62 % 1010,1 hPa 0,0 l/m 0 min 0 min 88 W/m 6,4 km/h (2 Bft) 97,87 %
07.06.2020 19:22 17,7 C 17,2 C 16,1 C 62 % 1010,1 hPa 0,0 l/m 0 min 0 min 86 W/m 3,2 km/h (1 Bft) 97,96 %
07.06.2020 19:24 17,7 C 17,2 C 16,1 C 62 % 1010,1 hPa 0,0 l/m 0 min 0 min 88 W/m 3,2 km/h (1 Bft) 100,00 %
07.06.2020 19:26 17,6 C 16,7 C 16,1 C 61 % 1010,1 hPa 0,0 l/m 0 min 0 min 89 W/m 3,2 km/h (1 Bft) 100,00 %
07.06.2020 19:28 17,6 C 16,7 C 16,1 C 61 % 1010,1 hPa 0,0 l/m 0 min 0 min 87 W/m 3,2 km/h (1 Bft) 97,83 %
07.06.2020 19:30 17,6 C 16,7 C 16,1 C 62 % 1010,1 hPa 0,0 l/m 0 min 0 min 83 W/m 0,0 km/h (0 Bft) 100,00 %
07.06.2020 19:32 17,6 C 16,7 C 16,1 C 62 % 1010,1 hPa 0,0 l/m 0 min 0 min 80 W/m 3,2 km/h (1 Bft) 97,83 %
07.06.2020 19:34 17,6 C 17,2 C 16,1 C 62 % 1010,2 hPa 0,0 l/m 0 min 0 min 77 W/m 0,0 km/h (0 Bft) 100,00 %
07.06.2020 19:36 17,6 C 16,7 C 16,1 C 62 % 1010,2 hPa 0,0 l/m 0 min 0 min 76 W/m 3,2 km/h (1 Bft) 98,18 %
07.06.2020 19:38 17,6 C 16,7 C 16,1 C 62 % 1010,2 hPa 0,0 l/m 0 min 0 min 71 W/m 0,0 km/h (0 Bft) 100,00 %
07.06.2020 19:40 17,6 C 16,7 C 16,1 C 62 % 1010,2 hPa 0,0 l/m 0 min 0 min 69 W/m 0,0 km/h (0 Bft) 95,74 %
07.06.2020 19:42 17,6 C 16,7 C 16,1 C 63 % 1010,3 hPa 0,0 l/m 0 min 0 min 70 W/m 3,2 km/h (1 Bft) 95,74 %
07.06.2020 19:44 17,5 C 16,7 C 16,1 C 63 % 1010,3 hPa 0,0 l/m 0 min 0 min 71 W/m 3,2 km/h (1 Bft) 97,87 %
07.06.2020 19:46 17,5 C 16,7 C 16,1 C 62 % 1010,3 hPa 0,0 l/m 0 min 0 min 73 W/m 6,4 km/h (2 Bft) 97,14 %
07.06.2020 19:48 17,5 C 16,7 C 16,1 C 62 % 1010,2 hPa 0,0 l/m 0 min 0 min 73 W/m 0,0 km/h (0 Bft) 95,74 %
07.06.2020 19:50 17,4 C 16,7 C 16,1 C 63 % 1010,2 hPa 0,0 l/m 0 min 0 min 70 W/m 0,0 km/h (0 Bft) 98,18 %
07.06.2020 19:52 17,4 C 16,7 C 16,1 C 63 % 1010,3 hPa 0,0 l/m 0 min 0 min 70 W/m 3,2 km/h (1 Bft) 95,74 %
07.06.2020 19:54 17,4 C 16,7 C 16,1 C 63 % 1010,3 hPa 0,0 l/m 0 min 0 min 70 W/m 6,4 km/h (2 Bft) 97,87 %
07.06.2020 19:56 17,4 C 16,7 C 16,1 C 63 % 1010,3 hPa 0,0 l/m 0 min 0 min 72 W/m 0,0 km/h (0 Bft) 97,96 %
07.06.2020 19:58 17,4 C 16,7 C 16,1 C 63 % 1010,3 hPa 0,0 l/m 0 min 0 min 73 W/m 3,2 km/h (1 Bft) 93,62 %
07.06.2020 20:00 17,4 C 16,7 C 16,1 C 63 % 1010,3 hPa 0,0 l/m 0 min 0 min 76 W/m 3,2 km/h (1 Bft) 100,00 %
07.06.2020 20:02 17,4 C 16,7 C 16,1 C 63 % 1010,3 hPa 0,0 l/m 0 min 0 min 79 W/m 6,4 km/h (2 Bft) 96,43 %
07.06.2020 20:04 17,3 C 16,7 C 16,1 C 62 % 1010,3 hPa 0,0 l/m 0 min 0 min 78 W/m 3,2 km/h (1 Bft) 97,87 %
07.06.2020 20:06 17,3 C 16,7 C 16,1 C 63 % 1010,4 hPa 0,0 l/m 0 min 0 min 74 W/m 0,0 km/h (0 Bft) 97,96 %
07.06.2020 20:08 17,3 C 16,7 C 16,1 C 63 % 1010,4 hPa 0,0 l/m 0 min 0 min 67 W/m 0,0 km/h (0 Bft) 97,14 %
07.06.2020 20:10 17,3 C 16,7 C 16,1 C 64 % 1010,4 hPa 0,0 l/m 0 min 0 min 60 W/m 0,0 km/h (0 Bft) 98,15 %
07.06.2020 20:12 17,3 C 16,7 C 15,6 C 64 % 1010,4 hPa 0,0 l/m 0 min 0 min 54 W/m 0,0 km/h (0 Bft) 96,00 %
07.06.2020 20:14 17,3 C 16,7 C 15,6 C 64 % 1010,4 hPa 0,0 l/m 0 min 0 min 52 W/m 0,0 km/h (0 Bft) 97,87 %
07.06.2020 20:16 17,3 C 16,7 C 15,6 C 64 % 1010,4 hPa 0,0 l/m 0 min 0 min 49 W/m 0,0 km/h (0 Bft) 97,87 %
07.06.2020 20:18 17,3 C 16,1 C 15,6 C 65 % 1010,4 hPa 0,0 l/m 0 min 0 min 47 W/m 0,0 km/h (0 Bft) 97,87 %
07.06.2020 20:20 17,3 C 16,1 C 15,6 C 65 % 1010,4 hPa 0,0 l/m 0 min 0 min 44 W/m 6,4 km/h (2 Bft) 97,83 %
07.06.2020 20:22 17,3 C 16,1 C 15,6 C 64 % 1010,5 hPa 0,0 l/m 0 min 0 min 41 W/m 3,2 km/h (1 Bft) 97,87 %
07.06.2020 20:24 17,3 C 16,1 C 15,6 C 64 % 1010,5 hPa 0,0 l/m 0 min 0 min 39 W/m 0,0 km/h (0 Bft) 97,87 %
07.06.2020 20:26 17,2 C 16,1 C 15,6 C 65 % 1010,4 hPa 0,0 l/m 0 min 0 min 37 W/m 3,2 km/h (1 Bft) 97,87 %
07.06.2020 20:28 17,2 C 16,1 C 15,0 C 64 % 1010,5 hPa 0,0 l/m 0 min 0 min 35 W/m 0,0 km/h (0 Bft) 95,74 %
07.06.2020 20:30 17,2 C 16,1 C 15,0 C 64 % 1010,5 hPa 0,0 l/m 0 min 0 min 33 W/m 0,0 km/h (0 Bft) 95,74 %
07.06.2020 20:32 17,2 C 16,1 C 15,0 C 64 % 1010,5 hPa 0,0 l/m 0 min 0 min 31 W/m 0,0 km/h (0 Bft) 100,00 %
07.06.2020 20:34 17,2 C 15,6 C 15,0 C 65 % 1010,5 hPa 0,0 l/m 0 min 0 min 29 W/m 0,0 km/h (0 Bft) 100,00 %
07.06.2020 20:36 17,1 C 15,6 C 15,0 C 65 % 1010,5 hPa 0,0 l/m 0 min 0 min 26 W/m 0,0 km/h (0 Bft) 100,00 %
07.06.2020 20:38 17,1 C 15,6 C 15,0 C 65 % 1010,5 hPa 0,0 l/m 0 min 0 min 25 W/m 0,0 km/h (0 Bft) 100,00 %
07.06.2020 20:40 17,1 C 15,6 C 15,0 C 65 % 1010,6 hPa 0,0 l/m 0 min 0 min 24 W/m 0,0 km/h (0 Bft) 100,00 %
07.06.2020 20:42 17,1 C 15,6 C 15,0 C 65 % 1010,6 hPa 0,0 l/m 0 min 0 min 22 W/m 0,0 km/h (0 Bft) 100,00 %
07.06.2020 20:44 17,0 C 15,6 C 15,0 C 65 % 1010,6 hPa 0,0 l/m 0 min 0 min 21 W/m 0,0 km/h (0 Bft) 100,00 %
07.06.2020 20:46 17,0 C 15,6 C 15,0 C 65 % 1010,6 hPa 0,0 l/m 0 min 0 min 21 W/m 0,0 km/h (0 Bft) 100,00 %
07.06.2020 20:48 16,9 C 15,6 C 15,0 C 65 % 1010,6 hPa 0,0 l/m 0 min 0 min 23 W/m 0,0 km/h (0 Bft) 100,00 %
07.06.2020 20:50 16,9 C 15,6 C 15,0 C 65 % 1010,7 hPa 0,0 l/m 0 min 0 min 23 W/m 0,0 km/h (0 Bft) 97,83 %
07.06.2020 20:52 16,9 C 15,6 C 15,0 C 65 % 1010,7 hPa 0,0 l/m 0 min 0 min 23 W/m 0,0 km/h (0 Bft) 97,87 %
07.06.2020 20:54 16,9 C 15,6 C 15,0 C 66 % 1010,7 hPa 0,0 l/m 0 min 0 min 23 W/m 0,0 km/h (0 Bft) 100,00 %
07.06.2020 20:56 16,8 C 15,6 C 14,4 C 66 % 1010,7 hPa 0,0 l/m 0 min 0 min 23 W/m 0,0 km/h (0 Bft) 100,00 %
07.06.2020 20:58 16,8 C 15,0 C 14,4 C 66 % 1010,7 hPa 0,0 l/m 0 min 0 min 21 W/m 0,0 km/h (0 Bft) 100,00 %
07.06.2020 21:00 16,8 C 15,0 C 14,4 C 66 % 1010,7 hPa 0,0 l/m 0 min 0 min 21 W/m 0,0 km/h (0 Bft) 100,00 %
07.06.2020 21:02 16,7 C 15,0 C 14,4 C 66 % 1010,8 hPa 0,0 l/m 0 min 0 min 21 W/m 0,0 km/h (0 Bft) 100,00 %
07.06.2020 21:04 16,7 C 15,0 C 14,4 C 66 % 1010,8 hPa 0,0 l/m 0 min 0 min 19 W/m 0,0 km/h (0 Bft) 100,00 %
07.06.2020 21:06 16,7 C 15,0 C 14,4 C 67 % 1010,8 hPa 0,0 l/m 0 min 0 min 19 W/m 0,0 km/h (0 Bft) 100,00 %
07.06.2020 21:08 16,7 C 15,0 C 14,4 C 67 % 1010,9 hPa 0,0 l/m 0 min 0 min 18 W/m 0,0 km/h (0 Bft) 100,00 %
07.06.2020 21:10 16,6 C 15,0 C 14,4 C 67 % 1010,8 hPa 0,0 l/m 0 min 0 min 16 W/m 0,0 km/h (0 Bft) 100,00 %
07.06.2020 21:12 16,6 C 15,0 C 14,4 C 67 % 1010,8 hPa 0,0 l/m 0 min 0 min 14 W/m 0,0 km/h (0 Bft) 100,00 %
07.06.2020 21:14 16,6 C 15,0 C 14,4 C 68 % 1010,9 hPa 0,0 l/m 0 min 0 min 12 W/m 0,0 km/h (0 Bft) 97,87 %
07.06.2020 21:16 16,5 C 15,0 C 14,4 C 68 % 1010,9 hPa 0,0 l/m 0 min 0 min 11 W/m 0,0 km/h (0 Bft) 97,87 %
07.06.2020 21:18 16,4 C 14,4 C 14,4 C 68 % 1010,9 hPa 0,0 l/m 0 min 0 min 10 W/m 0,0 km/h (0 Bft) 97,87 %
07.06.2020 21:20 16,4 C 14,4 C 14,4 C 68 % 1010,9 hPa 0,0 l/m 0 min 0 min 9 W/m 0,0 km/h (0 Bft) 95,74 %
07.06.2020 21:22 16,4 C 14,4 C 13,9 C 68 % 1010,9 hPa 0,0 l/m 0 min 0 min 8 W/m 0,0 km/h (0 Bft) 93,62 %
07.06.2020 21:24 16,3 C 14,4 C 13,9 C 68 % 1010,9 hPa 0,0 l/m 0 min 0 min 6 W/m 0,0 km/h (0 Bft) 95,65 %
07.06.2020 21:26 16,3 C 14,4 C 13,9 C 69 % 1010,9 hPa 0,0 l/m 0 min 0 min 5 W/m 0,0 km/h (0 Bft) 95,74 %
07.06.2020 21:28 16,3 C 14,4 C 13,9 C 69 % 1011,0 hPa 0,0 l/m 0 min 0 min 5 W/m 3,2 km/h (1 Bft) 95,74 %
07.06.2020 21:30 16,2 C 14,4 C 13,9 C 69 % 1011,1 hPa 0,0 l/m 0 min 0 min 5 W/m 6,4 km/h (2 Bft) 95,74 %
07.06.2020 21:32 16,2 C 14,4 C 13,9 C 70 % 1011,1 hPa 0,0 l/m 0 min 0 min 0 W/m 6,4 km/h (2 Bft) 95,74 %
07.06.2020 21:34 16,1 C 14,4 C 13,9 C 69 % 1011,2 hPa 0,0 l/m 0 min 0 min 0 W/m 9,7 km/h (2 Bft) 95,74 %
07.06.2020 21:36 16,1 C 14,4 C 13,9 C 70 % 1011,2 hPa 0,0 l/m 0 min 0 min 0 W/m 3,2 km/h (1 Bft) 93,48 %
07.06.2020 21:38 16,0 C 14,4 C 13,9 C 71 % 1011,2 hPa 0,0 l/m 0 min 0 min 0 W/m 6,4 km/h (2 Bft) 93,62 %
07.06.2020 21:40 16,0 C 14,4 C 13,9 C 72 % 1011,3 hPa 0,0 l/m 0 min 0 min 0 W/m 6,4 km/h (2 Bft) 95,74 %
07.06.2020 21:42 15,9 C 13,9 C 13,9 C 72 % 1011,3 hPa 0,0 l/m 0 min 0 min 0 W/m 3,2 km/h (1 Bft) 95,74 %
07.06.2020 21:44 15,9 C 13,9 C 13,9 C 72 % 1011,3 hPa 0,0 l/m 0 min 0 min 0 W/m 3,2 km/h (1 Bft) 95,74 %
07.06.2020 21:46 15,8 C 13,9 C 13,9 C 73 % 1011,4 hPa 0,0 l/m 0 min 0 min 0 W/m 6,4 km/h (2 Bft) 93,62 %
07.06.2020 21:48 15,8 C 13,9 C 13,9 C 73 % 1011,4 hPa 0,0 l/m 0 min 0 min 0 W/m 3,2 km/h (1 Bft) 95,65 %
07.06.2020 21:50 15,7 C 13,9 C 13,9 C 73 % 1011,4 hPa 0,0 l/m 0 min 0 min 0 W/m 6,4 km/h (2 Bft) 95,74 %
07.06.2020 21:52 15,7 C 13,9 C 13,9 C 74 % 1011,4 hPa 0,0 l/m 0 min 0 min 0 W/m 19,3 km/h (3 Bft) 95,74 %
07.06.2020 21:54 15,6 C 13,9 C 13,9 C 74 % 1011,5 hPa 0,0 l/m 0 min 0 min 0 W/m 9,7 km/h (2 Bft) 93,62 %
07.06.2020 21:56 15,6 C 13,9 C 13,3 C 74 % 1011,5 hPa 0,0 l/m 0 min 0 min 0 W/m 9,7 km/h (2 Bft) 95,74 %
07.06.2020 21:58 15,5 C 13,3 C 13,3 C 75 % 1011,5 hPa 0,0 l/m 0 min 0 min 0 W/m 6,4 km/h (2 Bft) 95,74 %
07.06.2020 22:00 15,5 C 13,3 C 13,3 C 75 % 1011,6 hPa 0,0 l/m 0 min 0 min 0 W/m 6,4 km/h (2 Bft) 95,65 %
07.06.2020 22:02 15,4 C 13,3 C 13,3 C 75 % 1011,6 hPa 0,0 l/m 0 min 0 min 0 W/m 3,2 km/h (1 Bft) 93,62 %
07.06.2020 22:04 15,3 C 13,3 C 13,3 C 76 % 1011,6 hPa 0,0 l/m 0 min 0 min 0 W/m 3,2 km/h (1 Bft) 95,74 %
07.06.2020 22:06 15,3 C 13,3 C 13,3 C 76 % 1011,6 hPa 0,0 l/m 0 min 0 min 0 W/m 3,2 km/h (1 Bft) 93,62 %
07.06.2020 22:08 15,2 C 12,8 C 13,3 C 76 % 1011,7 hPa 0,0 l/m 0 min 0 min 0 W/m 0,0 km/h (0 Bft) 95,74 %
07.06.2020 22:10 15,2 C 12,8 C 13,3 C 77 % 1011,7 hPa 0,0 l/m 0 min 0 min 0 W/m 6,4 km/h (2 Bft) 93,48 %
07.06.2020 22:12 15,1 C 12,8 C 12,8 C 77 % 1011,7 hPa 0,0 l/m 0 min 0 min 0 W/m 0,0 km/h (0 Bft) 95,74 %
07.06.2020 22:14 15,1 C 12,8 C 12,8 C 77 % 1011,7 hPa 0,0 l/m 0 min 0 min 0 W/m 3,2 km/h (1 Bft) 95,74 %
07.06.2020 22:16 15,0 C 12,8 C 12,8 C 77 % 1011,8 hPa 0,0 l/m 0 min 0 min 0 W/m 0,0 km/h (0 Bft) 95,74 %
07.06.2020 22:18 14,9 C 12,8 C 12,8 C 77 % 1011,8 hPa 0,0 l/m 0 min 0 min 0 W/m 3,2 km/h (1 Bft) 93,62 %
07.06.2020 22:20 14,9 C 12,2 C 12,8 C 78 % 1011,8 hPa 0,0 l/m 0 min 0 min 0 W/m 0,0 km/h (0 Bft) 95,74 %
07.06.2020 22:22 14,8 C 12,2 C 12,8 C 78 % 1011,8 hPa 0,0 l/m 0 min 0 min 0 W/m 0,0 km/h (0 Bft) 97,83 %
07.06.2020 22:24 14,8 C 12,2 C 12,8 C 78 % 1011,8 hPa 0,0 l/m 0 min 0 min 0 W/m 0,0 km/h (0 Bft) 95,74 %
07.06.2020 22:26 14,7 C 12,2 C 12,2 C 78 % 1011,8 hPa 0,0 l/m 0 min 0 min 0 W/m 0,0 km/h (0 Bft) 97,87 %
07.06.2020 22:28 14,7 C 12,2 C 12,2 C 78 % 1011,8 hPa 0,0 l/m 0 min 0 min 0 W/m 0,0 km/h (0 Bft) 93,62 %
07.06.2020 22:30 14,6 C 12,2 C 12,2 C 79 % 1011,8 hPa 0,0 l/m 0 min 0 min 0 W/m 0,0 km/h (0 Bft) 100,00 %
07.06.2020 22:32 14,6 C 11,7 C 12,2 C 79 % 1011,9 hPa 0,0 l/m 0 min 0 min 0 W/m 0,0 km/h (0 Bft) 97,87 %
07.06.2020 22:34 14,5 C 11,7 C 12,2 C 79 % 1011,9 hPa 0,0 l/m 0 min 0 min 0 W/m 0,0 km/h (0 Bft) 97,83 %
07.06.2020 22:36 14,4 C 11,7 C 11,7 C 79 % 1012,0 hPa 0,0 l/m 0 min 0 min 0 W/m 0,0 km/h (0 Bft) 97,87 %
07.06.2020 22:38 14,3 C 11,7 C 11,7 C 79 % 1012,0 hPa 0,0 l/m 0 min 0 min 0 W/m 0,0 km/h (0 Bft) 93,62 %
07.06.2020 22:40 14,3 C 11,7 C 11,7 C 80 % 1011,9 hPa 0,0 l/m 0 min 0 min 0 W/m 0,0 km/h (0 Bft) 70,21 %
07.06.2020 22:42 14,3 C 11,7 C 11,7 C 80 % 1012,0 hPa 0,0 l/m 0 min 0 min 0 W/m 0,0 km/h (0 Bft) 84,78 %
07.06.2020 22:44 14,3 C 11,7 C 11,7 C 80 % 1012,0 hPa 0,0 l/m 0 min 0 min 0 W/m 0,0 km/h (0 Bft) 95,74 %
07.06.2020 22:46 14,2 C 11,7 C 11,7 C 81 % 1012,0 hPa 0,0 l/m 0 min 0 min 0 W/m 0,0 km/h (0 Bft) 95,65 %
07.06.2020 22:48 14,1 C 11,7 C 11,7 C 81 % 1012,1 hPa 0,0 l/m 0 min 0 min 0 W/m 0,0 km/h (0 Bft) 93,62 %
07.06.2020 22:50 14,1 C 11,1 C 11,7 C 81 % 1012,0 hPa 0,0 l/m 0 min 0 min 0 W/m 0,0 km/h (0 Bft) 97,87 %
07.06.2020 22:52 14,0 C 11,1 C 11,7 C 81 % 1012,1 hPa 0,0 l/m 0 min 0 min 0 W/m 0,0 km/h (0 Bft) 97,87 %
07.06.2020 22:54 13,9 C 11,1 C 11,7 C 81 % 1012,1 hPa 0,0 l/m 0 min 0 min 0 W/m 0,0 km/h (0 Bft) 97,87 %
07.06.2020 22:56 13,9 C 11,1 C 11,1 C 81 % 1012,1 hPa 0,0 l/m 0 min 0 min 0 W/m 0,0 km/h (0 Bft) 97,87 %
07.06.2020 22:58 13,8 C 11,1 C 11,1 C 81 % 1012,1 hPa 0,0 l/m 0 min 0 min 0 W/m 0,0 km/h (0 Bft) 97,83 %
07.06.2020 23:00 13,8 C 11,1 C 11,1 C 81 % 1012,1 hPa 0,0 l/m 0 min 0 min 0 W/m 0,0 km/h (0 Bft) 97,87 %
07.06.2020 23:02 13,7 C 11,1 C 11,1 C 81 % 1012,1 hPa 0,0 l/m 0 min 0 min 0 W/m 0,0 km/h (0 Bft) 95,74 %
07.06.2020 23:04 13,7 C 11,1 C 11,1 C 81 % 1012,1 hPa 0,0 l/m 0 min 0 min 0 W/m 0,0 km/h (0 Bft) 97,87 %
07.06.2020 23:06 13,6 C 11,1 C 11,1 C 82 % 1012,1 hPa 0,0 l/m 0 min 0 min 0 W/m 0,0 km/h (0 Bft) 97,87 %
07.06.2020 23:08 13,6 C 10,6 C 11,1 C 82 % 1012,1 hPa 0,0 l/m 0 min 0 min 0 W/m 0,0 km/h (0 Bft) 95,65 %
07.06.2020 23:10 13,5 C 10,6 C 10,6 C 82 % 1012,1 hPa 0,0 l/m 0 min 0 min 0 W/m 0,0 km/h (0 Bft) 97,87 %
07.06.2020 23:12 13,4 C 10,6 C 10,6 C 82 % 1012,1 hPa 0,0 l/m 0 min 0 min 0 W/m 0,0 km/h (0 Bft) 100,00 %
07.06.2020 23:14 13,4 C 10,6 C 10,6 C 82 % 1012,2 hPa 0,0 l/m 0 min 0 min 0 W/m 0,0 km/h (0 Bft) 100,00 %
07.06.2020 23:16 13,3 C 10,6 C 10,6 C 82 % 1012,2 hPa 0,0 l/m 0 min 0 min 0 W/m 0,0 km/h (0 Bft) 95,74 %
07.06.2020 23:18 13,3 C 10,6 C 10,6 C 83 % 1012,2 hPa 0,0 l/m 0 min 0 min 0 W/m 0,0 km/h (0 Bft) 100,00 %
07.06.2020 23:20 13,2 C 10,6 C 10,6 C 83 % 1012,2 hPa 0,0 l/m 0 min 0 min 0 W/m 0,0 km/h (0 Bft) 100,00 %
07.06.2020 23:22 13,2 C 10,6 C 10,6 C 83 % 1012,2 hPa 0,0 l/m 0 min 0 min 0 W/m 0,0 km/h (0 Bft) 97,87 %
07.06.2020 23:24 13,1 C 11,1 C 10,6 C 83 % 1012,2 hPa 0,0 l/m 0 min 0 min 0 W/m 0,0 km/h (0 Bft) 100,00 %
07.06.2020 23:26 13,1 C 10,6 C 10,6 C 83 % 1012,2 hPa 0,0 l/m 0 min 0 min 0 W/m 0,0 km/h (0 Bft) 100,00 %
07.06.2020 23:28 13,1 C 10,6 C 10,6 C 83 % 1012,3 hPa 0,0 l/m 0 min 0 min 0 W/m 0,0 km/h (0 Bft) 97,87 %
07.06.2020 23:30 13,0 C 10,6 C 10,6 C 84 % 1012,2 hPa 0,0 l/m 0 min 0 min 0 W/m 0,0 km/h (0 Bft) 97,87 %
07.06.2020 23:32 12,9 C 10,6 C 10,6 C 84 % 1012,3 hPa 0,0 l/m 0 min 0 min 0 W/m 0,0 km/h (0 Bft) 100,00 %
07.06.2020 23:34 12,9 C 10,6 C 10,6 C 84 % 1012,3 hPa 0,0 l/m 0 min 0 min 0 W/m 0,0 km/h (0 Bft) 100,00 %
07.06.2020 23:36 12,9 C 10,6 C 10,6 C 84 % 1012,3 hPa 0,0 l/m 0 min 0 min 0 W/m 0,0 km/h (0 Bft) 100,00 %
07.06.2020 23:38 12,8 C 10,6 C 10,6 C 84 % 1012,3 hPa 0,0 l/m 0 min 0 min 0 W/m 0,0 km/h (0 Bft) 100,00 %
07.06.2020 23:40 12,8 C 10,6 C 10,6 C 84 % 1012,3 hPa 0,0 l/m 0 min 0 min 0 W/m 0,0 km/h (0 Bft) 100,00 %
07.06.2020 23:42 12,8 C 10,6 C 10,6 C 84 % 1012,3 hPa 0,0 l/m 0 min 0 min 0 W/m 0,0 km/h (0 Bft) 100,00 %
07.06.2020 23:44 12,7 C 10,6 C 10,6 C 84 % 1012,3 hPa 0,0 l/m 0 min 0 min 0 W/m 0,0 km/h (0 Bft) 100,00 %
07.06.2020 23:46 12,7 C 11,1 C 10,6 C 84 % 1012,3 hPa 0,0 l/m 0 min 0 min 0 W/m 0,0 km/h (0 Bft) 100,00 %
07.06.2020 23:48 12,7 C 11,1 C 10,6 C 84 % 1012,4 hPa 0,0 l/m 0 min 0 min 0 W/m 0,0 km/h (0 Bft) 100,00 %
07.06.2020 23:50 12,6 C 11,1 C 10,6 C 85 % 1012,4 hPa 0,0 l/m 0 min 0 min 0 W/m 3,2 km/h (1 Bft) 100,00 %
07.06.2020 23:52 12,6 C 11,1 C 11,1 C 85 % 1012,4 hPa 0,0 l/m 0 min 0 min 0 W/m 0,0 km/h (0 Bft) 100,00 %
07.06.2020 23:54 12,6 C 11,1 C 11,1 C 85 % 1012,4 hPa 0,0 l/m 0 min 0 min 0 W/m 0,0 km/h (0 Bft) 100,00 %
07.06.2020 23:56 12,6 C 11,1 C 11,1 C 85 % 1012,4 hPa 0,0 l/m 0 min 0 min 0 W/m 0,0 km/h (0 Bft) 97,83 %
07.06.2020 23:58 12,6 C 11,1 C 11,1 C 85 % 1012,4 hPa 0,0 l/m 0 min 0 min 0 W/m 0,0 km/h (0 Bft) 100,00 %
_ Min-Zeit 05:50 05:36 05:42 15:34 03:36 - - - - 00:02 05:16
Minimum _ 11,0 C 9,4 C 9,4 C 52 % 1002,6 hPa - - - - 0,0 km/h (0 Bft) 53,33 %
_ Max-Zeit 15:42 15:16 13:40 23:50 23:48 00:00 09:16 05:34 14:38 08:42 01:08
Maximum _ 20,9 C 26,7 C 23,3 C 85 % 1012,4 hPa 0,0 l/m 2 min 2 min 1125 W/m 35,4 km/h
SO (5 Bft)
100,00 %
Durchschnitt _ 14,8 C 14,8 C 13,9 C 69 % 1007,0 hPa #0,0 l/m #2:26 h #10 min. 250 W/m 9,7 km/h (2 Bft) 97,30 %
© 2020 W. Hausmann